Wetterdaten: Donnerstag, 31.07.2014
Datum Zeit Temp. Aussen +5cm Feuchte Auss Luftdruck Regen Sonnenschein Regendauer UV Solar Windben
31.07.2014 00:00 16,8 C 15,6 C 91 % 1015,3 hPa 0,0 l/m 0 min 0 min 0,0 UV-I 0 W/m 8,4 km/h (2 Bft)
31.07.2014 00:02 16,8 C 15,6 C 91 % 1015,3 hPa 0,0 l/m 0 min 0 min 0,0 UV-I 0 W/m 2,1 km/h (1 Bft)
31.07.2014 00:05 16,9 C 15,6 C 91 % 1015,3 hPa 0,0 l/m 0 min 0 min 0,0 UV-I 0 W/m 0,0 km/h (0 Bft)
31.07.2014 00:06 16,9 C 15,6 C 91 % 1015,3 hPa 0,0 l/m 0 min 0 min 0,0 UV-I 0 W/m 0,0 km/h (0 Bft)
31.07.2014 00:08 16,9 C 15,6 C 91 % 1015,3 hPa 0,0 l/m 0 min 0 min 0,0 UV-I 0 W/m 2,1 km/h (1 Bft)
31.07.2014 00:10 16,9 C 15,6 C 90 % 1015,2 hPa 0,0 l/m 0 min 0 min 0,0 UV-I 0 W/m 12,6 km/h (3 Bft)
31.07.2014 00:12 16,9 C 15,6 C 90 % 1015,3 hPa 0,0 l/m 0 min 0 min 0,0 UV-I 0 W/m 8,4 km/h (2 Bft)
31.07.2014 00:14 16,9 C 15,6 C 90 % 1015,3 hPa 0,0 l/m 0 min 0 min 0,0 UV-I 0 W/m 4,2 km/h (1 Bft)
31.07.2014 00:16 17,0 C 15,6 C 90 % 1015,3 hPa 0,0 l/m 0 min 0 min 0,0 UV-I 0 W/m 6,3 km/h (2 Bft)
31.07.2014 00:18 16,9 C 15,6 C 89 % 1015,2 hPa 0,0 l/m 0 min 0 min 0,0 UV-I 0 W/m 6,3 km/h (2 Bft)
31.07.2014 00:20 16,9 C 15,6 C 89 % 1015,3 hPa 0,0 l/m 0 min 0 min 0,0 UV-I 0 W/m 0,0 km/h (0 Bft)
31.07.2014 00:22 16,9 C 15,6 C 89 % 1015,4 hPa 0,0 l/m 0 min 0 min 0,0 UV-I 0 W/m 2,1 km/h (1 Bft)
31.07.2014 00:24 16,9 C 15,6 C 89 % 1015,4 hPa 0,0 l/m 0 min 0 min 0,0 UV-I 0 W/m 0,0 km/h (0 Bft)
31.07.2014 00:26 16,8 C 15,6 C 89 % 1015,4 hPa 0,0 l/m 0 min 0 min 0,0 UV-I 0 W/m 0,0 km/h (0 Bft)
31.07.2014 00:28 16,8 C 15,6 C 89 % 1015,4 hPa 0,0 l/m 0 min 0 min 0,0 UV-I 0 W/m 0,0 km/h (0 Bft)
31.07.2014 00:30 16,8 C 15,6 C 89 % 1015,4 hPa 0,0 l/m 0 min 0 min 0,0 UV-I 0 W/m 0,0 km/h (0 Bft)
31.07.2014 00:32 16,7 C 15,6 C 90 % 1015,4 hPa 0,0 l/m 0 min 0 min 0,0 UV-I 0 W/m 0,0 km/h (0 Bft)
31.07.2014 00:34 16,7 C 15,0 C 90 % 1015,4 hPa 0,0 l/m 0 min 0 min 0,0 UV-I 0 W/m 2,1 km/h (1 Bft)
31.07.2014 00:36 16,7 C 15,0 C 90 % 1015,4 hPa 0,0 l/m 0 min 0 min 0,0 UV-I 0 W/m 0,0 km/h (0 Bft)
31.07.2014 00:38 16,6 C 15,0 C 90 % 1015,4 hPa 0,0 l/m 0 min 0 min 0,0 UV-I 0 W/m 4,2 km/h (1 Bft)
31.07.2014 00:40 16,7 C 15,0 C 90 % 1015,4 hPa 0,0 l/m 0 min 0 min 0,0 UV-I 0 W/m 2,1 km/h (1 Bft)
31.07.2014 00:42 16,7 C 15,0 C 90 % 1015,5 hPa 0,0 l/m 0 min 0 min 0,0 UV-I 0 W/m 0,0 km/h (0 Bft)
31.07.2014 00:44 16,6 C 15,0 C 90 % 1015,4 hPa 0,0 l/m 0 min 0 min 0,0 UV-I 0 W/m 0,0 km/h (0 Bft)
31.07.2014 00:46 16,6 C 15,0 C 90 % 1015,4 hPa 0,0 l/m 0 min 0 min 0,0 UV-I 0 W/m 0,0 km/h (0 Bft)
31.07.2014 00:48 16,6 C 15,0 C 90 % 1015,4 hPa 0,0 l/m 0 min 0 min 0,0 UV-I 0 W/m 0,0 km/h (0 Bft)
31.07.2014 00:50 16,6 C 15,0 C 90 % 1015,3 hPa 0,0 l/m 0 min 0 min 0,0 UV-I 0 W/m 0,0 km/h (0 Bft)
31.07.2014 00:52 16,5 C 15,0 C 90 % 1015,4 hPa 0,0 l/m 0 min 0 min 0,0 UV-I 0 W/m 2,1 km/h (1 Bft)
31.07.2014 00:54 16,5 C 15,0 C 90 % 1015,4 hPa 0,0 l/m 0 min 0 min 0,0 UV-I 0 W/m 2,1 km/h (1 Bft)
31.07.2014 00:56 16,4 C 15,0 C 90 % 1015,4 hPa 0,0 l/m 0 min 0 min 0,0 UV-I 0 W/m 0,0 km/h (0 Bft)
31.07.2014 00:58 16,4 C 15,0 C 90 % 1015,4 hPa 0,0 l/m 0 min 0 min 0,0 UV-I 0 W/m 0,0 km/h (0 Bft)
31.07.2014 01:00 16,4 C 15,0 C 90 % 1015,4 hPa 0,0 l/m 0 min 0 min 0,0 UV-I 0 W/m 0,0 km/h (0 Bft)
31.07.2014 01:02 16,3 C 15,0 C 91 % 1015,4 hPa 0,0 l/m 0 min 0 min 0,0 UV-I 0 W/m 2,1 km/h (1 Bft)
31.07.2014 01:04 16,3 C 15,0 C 91 % 1015,4 hPa 0,0 l/m 0 min 0 min 0,0 UV-I 0 W/m 8,4 km/h (2 Bft)
31.07.2014 01:06 16,3 C 15,0 C 91 % 1015,4 hPa 0,0 l/m 0 min 0 min 0,0 UV-I 0 W/m 4,2 km/h (1 Bft)
31.07.2014 01:08 16,3 C 15,0 C 91 % 1015,4 hPa 0,0 l/m 0 min 0 min 0,0 UV-I 0 W/m 0,0 km/h (0 Bft)
31.07.2014 01:10 16,2 C 15,0 C 91 % 1015,4 hPa 0,0 l/m 0 min 0 min 0,0 UV-I 0 W/m 2,1 km/h (1 Bft)
31.07.2014 01:12 16,2 C 15,0 C 91 % 1015,4 hPa 0,0 l/m 0 min 0 min 0,0 UV-I 0 W/m 0,0 km/h (0 Bft)
31.07.2014 01:14 16,2 C 14,4 C 91 % 1015,4 hPa 0,0 l/m 0 min 0 min 0,0 UV-I 0 W/m 0,0 km/h (0 Bft)
31.07.2014 01:16 16,1 C 14,4 C 91 % 1015,4 hPa 0,0 l/m 0 min 0 min 0,0 UV-I 0 W/m 0,0 km/h (0 Bft)
31.07.2014 01:18 16,1 C 14,4 C 91 % 1015,4 hPa 0,0 l/m 0 min 0 min 0,0 UV-I 0 W/m 0,0 km/h (0 Bft)
31.07.2014 01:20 15,9 C 14,4 C 91 % 1015,4 hPa 0,0 l/m 0 min 0 min 0,0 UV-I 0 W/m 2,1 km/h (1 Bft)
31.07.2014 01:22 15,9 C 14,4 C 91 % 1015,4 hPa 0,0 l/m 0 min 0 min 0,0 UV-I 0 W/m 0,0 km/h (0 Bft)
31.07.2014 01:24 15,9 C 14,4 C 91 % 1015,5 hPa 0,0 l/m 0 min 0 min 0,0 UV-I 0 W/m 0,0 km/h (0 Bft)
31.07.2014 01:26 15,9 C 14,4 C 91 % 1015,4 hPa 0,0 l/m 0 min 0 min 0,0 UV-I 0 W/m 0,0 km/h (0 Bft)
31.07.2014 01:28 15,8 C 14,4 C 92 % 1015,4 hPa 0,0 l/m 0 min 0 min 0,0 UV-I 0 W/m 0,0 km/h (0 Bft)
31.07.2014 01:30 15,8 C 14,4 C 92 % 1015,5 hPa 0,0 l/m 0 min 0 min 0,0 UV-I 0 W/m 0,0 km/h (0 Bft)
31.07.2014 01:32 15,8 C 14,4 C 92 % 1015,5 hPa 0,0 l/m 0 min 0 min 0,0 UV-I 0 W/m 0,0 km/h (0 Bft)
31.07.2014 01:34 15,8 C 14,4 C 92 % 1015,5 hPa 0,0 l/m 0 min 0 min 0,0 UV-I 0 W/m 0,0 km/h (0 Bft)
31.07.2014 01:36 15,8 C 14,4 C 92 % 1015,5 hPa 0,0 l/m 0 min 0 min 0,0 UV-I 0 W/m 2,1 km/h (1 Bft)
31.07.2014 01:38 15,7 C 14,4 C 92 % 1015,5 hPa 0,0 l/m 0 min 0 min 0,0 UV-I 0 W/m 0,0 km/h (0 Bft)
31.07.2014 01:40 15,7 C 14,4 C 92 % 1015,5 hPa 0,0 l/m 0 min 0 min 0,0 UV-I 0 W/m 0,0 km/h (0 Bft)
31.07.2014 01:42 15,7 C 14,4 C 92 % 1015,5 hPa 0,0 l/m 0 min 0 min 0,0 UV-I 0 W/m 2,1 km/h (1 Bft)
31.07.2014 01:44 15,7 C 13,9 C 92 % 1015,5 hPa 0,0 l/m 0 min 0 min 0,0 UV-I 0 W/m 0,0 km/h (0 Bft)
31.07.2014 01:46 15,6 C 13,9 C 92 % 1015,6 hPa 0,0 l/m 0 min 0 min 0,0 UV-I 0 W/m 0,0 km/h (0 Bft)
31.07.2014 01:48 15,6 C 13,9 C 92 % 1015,6 hPa 0,0 l/m 0 min 0 min 0,0 UV-I 0 W/m 0,0 km/h (0 Bft)
31.07.2014 01:50 15,6 C 13,9 C 92 % 1015,6 hPa 0,0 l/m 0 min 0 min 0,0 UV-I 0 W/m 2,1 km/h (1 Bft)
31.07.2014 01:52 15,5 C 13,9 C 92 % 1015,5 hPa 0,0 l/m 0 min 0 min 0,0 UV-I 0 W/m 0,0 km/h (0 Bft)
31.07.2014 01:54 15,5 C 13,9 C 92 % 1015,5 hPa 0,0 l/m 0 min 0 min 0,0 UV-I 0 W/m 0,0 km/h (0 Bft)
31.07.2014 01:56 15,5 C 13,9 C 92 % 1015,5 hPa 0,0 l/m 0 min 0 min 0,0 UV-I 0 W/m 0,0 km/h (0 Bft)
31.07.2014 01:58 15,4 C 13,9 C 92 % 1015,5 hPa 0,0 l/m 0 min 0 min 0,0 UV-I 0 W/m 6,3 km/h (2 Bft)
31.07.2014 02:00 15,4 C 13,9 C 92 % 1015,5 hPa 0,0 l/m 0 min 0 min 0,0 UV-I 0 W/m 4,2 km/h (1 Bft)
31.07.2014 02:02 15,4 C 13,9 C 92 % 1015,5 hPa 0,0 l/m 0 min 0 min 0,0 UV-I 0 W/m 8,4 km/h (2 Bft)
31.07.2014 02:04 15,4 C 13,9 C 92 % 1015,5 hPa 0,0 l/m 0 min 0 min 0,0 UV-I 0 W/m 0,0 km/h (0 Bft)
31.07.2014 02:06 15,4 C 13,9 C 92 % 1015,5 hPa 0,0 l/m 0 min 0 min 0,0 UV-I 0 W/m 0,0 km/h (0 Bft)
31.07.2014 02:08 15,4 C 13,9 C 92 % 1015,4 hPa 0,0 l/m 0 min 0 min 0,0 UV-I 0 W/m 2,1 km/h (1 Bft)
31.07.2014 02:10 15,4 C 13,9 C 92 % 1015,5 hPa 0,0 l/m 0 min 0 min 0,0 UV-I 0 W/m 0,0 km/h (0 Bft)
31.07.2014 02:12 15,4 C 13,9 C 92 % 1015,5 hPa 0,0 l/m 0 min 0 min 0,0 UV-I 0 W/m 0,0 km/h (0 Bft)
31.07.2014 02:14 15,4 C 13,9 C 92 % 1015,4 hPa 0,0 l/m 0 min 0 min 0,0 UV-I 0 W/m 0,0 km/h (0 Bft)
31.07.2014 02:16 15,4 C 14,4 C 92 % 1015,4 hPa 0,0 l/m 0 min 0 min 0,0 UV-I 0 W/m 0,0 km/h (0 Bft)
31.07.2014 02:18 15,4 C 14,4 C 92 % 1015,4 hPa 0,0 l/m 0 min 0 min 0,0 UV-I 0 W/m 2,1 km/h (1 Bft)
31.07.2014 02:20 15,4 C 14,4 C 92 % 1015,5 hPa 0,0 l/m 0 min 0 min 0,0 UV-I 0 W/m 0,0 km/h (0 Bft)
31.07.2014 02:22 15,4 C 14,4 C 92 % 1015,5 hPa 0,0 l/m 0 min 0 min 0,0 UV-I 0 W/m 0,0 km/h (0 Bft)
31.07.2014 02:24 15,4 C 14,4 C 92 % 1015,6 hPa 0,0 l/m 0 min 0 min 0,0 UV-I 0 W/m 0,0 km/h (0 Bft)
31.07.2014 02:26 15,4 C 13,9 C 92 % 1015,6 hPa 0,0 l/m 0 min 0 min 0,0 UV-I 0 W/m 0,0 km/h (0 Bft)
31.07.2014 02:28 15,4 C 13,9 C 92 % 1015,5 hPa 0,0 l/m 0 min 0 min 0,0 UV-I 0 W/m 0,0 km/h (0 Bft)
31.07.2014 02:30 15,4 C 13,9 C 92 % 1015,6 hPa 0,0 l/m 0 min 0 min 0,0 UV-I 0 W/m 0,0 km/h (0 Bft)
31.07.2014 02:32 15,4 C 13,9 C 92 % 1015,6 hPa 0,0 l/m 0 min 0 min 0,0 UV-I 0 W/m 0,0 km/h (0 Bft)
31.07.2014 02:34 15,4 C 13,9 C 92 % 1015,6 hPa 0,0 l/m 0 min 0 min 0,0 UV-I 0 W/m 0,0 km/h (0 Bft)
31.07.2014 02:36 15,3 C 13,9 C 92 % 1015,7 hPa 0,0 l/m 0 min 0 min 0,0 UV-I 0 W/m 0,0 km/h (0 Bft)
31.07.2014 02:38 15,3 C 13,9 C 92 % 1015,7 hPa 0,0 l/m 0 min 0 min 0,0 UV-I 0 W/m 0,0 km/h (0 Bft)
31.07.2014 02:40 15,3 C 13,9 C 92 % 1015,7 hPa 0,0 l/m 0 min 0 min 0,0 UV-I 0 W/m 0,0 km/h (0 Bft)
31.07.2014 02:42 15,3 C 13,9 C 92 % 1015,7 hPa 0,0 l/m 0 min 0 min 0,0 UV-I 0 W/m 0,0 km/h (0 Bft)
31.07.2014 02:44 15,3 C 13,9 C 92 % 1015,8 hPa 0,0 l/m 0 min 0 min 0,0 UV-I 0 W/m 0,0 km/h (0 Bft)
31.07.2014 02:46 15,3 C 13,9 C 92 % 1015,7 hPa 0,0 l/m 0 min 0 min 0,0 UV-I 0 W/m 0,0 km/h (0 Bft)
31.07.2014 02:48 15,3 C 13,9 C 92 % 1015,8 hPa 0,0 l/m 0 min 0 min 0,0 UV-I 0 W/m 0,0 km/h (0 Bft)
31.07.2014 02:50 15,2 C 13,9 C 92 % 1015,7 hPa 0,0 l/m 0 min 0 min 0,0 UV-I 0 W/m 0,0 km/h (0 Bft)
31.07.2014 02:52 15,2 C 13,9 C 92 % 1015,6 hPa 0,0 l/m 0 min 0 min 0,0 UV-I 0 W/m 0,0 km/h (0 Bft)
31.07.2014 02:54 15,1 C 13,9 C 92 % 1015,7 hPa 0,0 l/m 0 min 0 min 0,0 UV-I 0 W/m 0,0 km/h (0 Bft)
31.07.2014 02:56 15,1 C 13,9 C 93 % 1015,7 hPa 0,0 l/m 0 min 0 min 0,0 UV-I 0 W/m 0,0 km/h (0 Bft)
31.07.2014 02:58 15,0 C 13,9 C 93 % 1015,7 hPa 0,0 l/m 0 min 0 min 0,0 UV-I 0 W/m 0,0 km/h (0 Bft)
31.07.2014 03:00 14,9 C 13,3 C 93 % 1015,7 hPa 0,0 l/m 0 min 0 min 0,0 UV-I 0 W/m 0,0 km/h (0 Bft)
31.07.2014 03:02 14,9 C 13,3 C 93 % 1015,8 hPa 0,0 l/m 0 min 0 min 0,0 UV-I 0 W/m 0,0 km/h (0 Bft)
31.07.2014 03:04 14,9 C 13,3 C 93 % 1015,8 hPa 0,0 l/m 0 min 0 min 0,0 UV-I 0 W/m 0,0 km/h (0 Bft)
31.07.2014 03:06 14,8 C 13,3 C 93 % 1015,7 hPa 0,0 l/m 0 min 0 min 0,0 UV-I 0 W/m 0,0 km/h (0 Bft)
31.07.2014 03:08 14,7 C 13,3 C 93 % 1015,7 hPa 0,0 l/m 0 min 0 min 0,0 UV-I 0 W/m 0,0 km/h (0 Bft)
31.07.2014 03:10 14,7 C 13,3 C 93 % 1015,7 hPa 0,0 l/m 0 min 0 min 0,0 UV-I 0 W/m 0,0 km/h (0 Bft)
31.07.2014 03:12 14,6 C 13,3 C 93 % 1015,7 hPa 0,0 l/m 0 min 0 min 0,0 UV-I 0 W/m 2,1 km/h (1 Bft)
31.07.2014 03:14 14,6 C 13,3 C 93 % 1015,8 hPa 0,0 l/m 0 min 0 min 0,0 UV-I 0 W/m 0,0 km/h (0 Bft)
31.07.2014 03:16 14,6 C 13,3 C 94 % 1015,8 hPa 0,0 l/m 0 min 0 min 0,0 UV-I 0 W/m 0,0 km/h (0 Bft)
31.07.2014 03:18 14,5 C 13,3 C 94 % 1015,8 hPa 0,0 l/m 0 min 0 min 0,0 UV-I 0 W/m 0,0 km/h (0 Bft)
31.07.2014 03:20 14,5 C 12,8 C 94 % 1015,8 hPa 0,0 l/m 0 min 0 min 0,0 UV-I 0 W/m 0,0 km/h (0 Bft)
31.07.2014 03:22 14,4 C 12,8 C 94 % 1015,8 hPa 0,0 l/m 0 min 0 min 0,0 UV-I 0 W/m 0,0 km/h (0 Bft)
31.07.2014 03:24 14,4 C 12,8 C 94 % 1015,8 hPa 0,0 l/m 0 min 0 min 0,0 UV-I 0 W/m 0,0 km/h (0 Bft)
31.07.2014 03:26 14,3 C 12,8 C 94 % 1015,8 hPa 0,0 l/m 0 min 0 min 0,0 UV-I 0 W/m 0,0 km/h (0 Bft)
31.07.2014 03:28 14,3 C 12,8 C 94 % 1015,8 hPa 0,0 l/m 0 min 0 min 0,0 UV-I 0 W/m 0,0 km/h (0 Bft)
31.07.2014 03:30 14,2 C 12,8 C 94 % 1015,8 hPa 0,0 l/m 0 min 0 min 0,0 UV-I 0 W/m 0,0 km/h (0 Bft)
31.07.2014 03:32 14,2 C 12,8 C 94 % 1015,8 hPa 0,0 l/m 0 min 0 min 0,0 UV-I 0 W/m 0,0 km/h (0 Bft)
31.07.2014 03:34 14,2 C 12,8 C 94 % 1015,8 hPa 0,0 l/m 0 min 0 min 0,0 UV-I 0 W/m 0,0 km/h (0 Bft)
31.07.2014 03:36 14,2 C 12,8 C 95 % 1015,8 hPa 0,0 l/m 0 min 0 min 0,0 UV-I 0 W/m 2,1 km/h (1 Bft)
31.07.2014 03:38 14,2 C 12,8 C 95 % 1015,8 hPa 0,0 l/m 0 min 0 min 0,0 UV-I 0 W/m 0,0 km/h (0 Bft)
31.07.2014 03:40 14,2 C 12,8 C 95 % 1015,8 hPa 0,0 l/m 0 min 0 min 0,0 UV-I 0 W/m 0,0 km/h (0 Bft)
31.07.2014 03:42 14,1 C 12,8 C 95 % 1015,8 hPa 0,0 l/m 0 min 0 min 0,0 UV-I 0 W/m 0,0 km/h (0 Bft)
31.07.2014 03:44 14,1 C 12,8 C 95 % 1015,9 hPa 0,0 l/m 0 min 0 min 0,0 UV-I 0 W/m 0,0 km/h (0 Bft)
31.07.2014 03:46 14,1 C 12,8 C 95 % 1015,9 hPa 0,0 l/m 0 min 0 min 0,0 UV-I 0 W/m 0,0 km/h (0 Bft)
31.07.2014 03:48 14,0 C 12,8 C 95 % 1015,8 hPa 0,0 l/m 0 min 0 min 0,0 UV-I 0 W/m 0,0 km/h (0 Bft)
31.07.2014 03:50 14,0 C 12,8 C 95 % 1015,8 hPa 0,0 l/m 0 min 0 min 0,0 UV-I 0 W/m 0,0 km/h (0 Bft)
31.07.2014 03:52 13,9 C 12,8 C 95 % 1015,8 hPa 0,0 l/m 0 min 0 min 0,0 UV-I 0 W/m 2,1 km/h (1 Bft)
31.07.2014 03:54 13,9 C 12,8 C 95 % 1015,8 hPa 0,0 l/m 0 min 0 min 0,0 UV-I 0 W/m 0,0 km/h (0 Bft)
31.07.2014 03:56 13,9 C 12,8 C 95 % 1015,7 hPa 0,0 l/m 0 min 0 min 0,0 UV-I 0 W/m 0,0 km/h (0 Bft)
31.07.2014 03:58 13,9 C 12,8 C 95 % 1015,7 hPa 0,0 l/m 0 min 0 min 0,0 UV-I 0 W/m 0,0 km/h (0 Bft)
31.07.2014 04:00 13,8 C 12,8 C 96 % 1015,8 hPa 0,0 l/m 0 min 0 min 0,0 UV-I 0 W/m 2,1 km/h (1 Bft)
31.07.2014 04:02 13,8 C 12,8 C 96 % 1015,7 hPa 0,0 l/m 0 min 0 min 0,0 UV-I 0 W/m 0,0 km/h (0 Bft)
31.07.2014 04:04 13,8 C 12,2 C 95 % 1015,8 hPa 0,0 l/m 0 min 0 min 0,0 UV-I 0 W/m 0,0 km/h (0 Bft)
31.07.2014 04:06 13,7 C 12,8 C 96 % 1015,9 hPa 0,0 l/m 0 min 0 min 0,0 UV-I 0 W/m 2,1 km/h (1 Bft)
31.07.2014 04:08 13,7 C 12,8 C 96 % 1015,9 hPa 0,0 l/m 0 min 0 min 0,0 UV-I 0 W/m 0,0 km/h (0 Bft)
31.07.2014 04:10 13,7 C 12,2 C 96 % 1015,9 hPa 0,0 l/m 0 min 0 min 0,0 UV-I 0 W/m 0,0 km/h (0 Bft)
31.07.2014 04:12 13,7 C 12,2 C 96 % 1015,9 hPa 0,0 l/m 0 min 0 min 0,0 UV-I 0 W/m 0,0 km/h (0 Bft)
31.07.2014 04:14 13,6 C 12,2 C 96 % 1015,8 hPa 0,0 l/m 0 min 0 min 0,0 UV-I 0 W/m 0,0 km/h (0 Bft)
31.07.2014 04:16 13,6 C 12,2 C 96 % 1015,8 hPa 0,0 l/m 0 min 0 min 0,0 UV-I 0 W/m 0,0 km/h (0 Bft)
31.07.2014 04:18 13,5 C 12,2 C 96 % 1015,9 hPa 0,0 l/m 0 min 0 min 0,0 UV-I 0 W/m 0,0 km/h (0 Bft)
31.07.2014 04:20 13,4 C 12,2 C 96 % 1015,9 hPa 0,0 l/m 0 min 0 min 0,0 UV-I 0 W/m 0,0 km/h (0 Bft)
31.07.2014 04:22 13,4 C 12,2 C 96 % 1015,8 hPa 0,0 l/m 0 min 0 min 0,0 UV-I 0 W/m 0,0 km/h (0 Bft)
31.07.2014 04:24 13,4 C 12,2 C 96 % 1015,8 hPa 0,0 l/m 0 min 0 min 0,0 UV-I 0 W/m 0,0 km/h (0 Bft)
31.07.2014 04:26 13,3 C 12,2 C 96 % 1015,8 hPa 0,0 l/m 0 min 0 min 0,0 UV-I 0 W/m 0,0 km/h (0 Bft)
31.07.2014 04:28 13,3 C 12,2 C 96 % 1015,8 hPa 0,0 l/m 0 min 0 min 0,0 UV-I 0 W/m 0,0 km/h (0 Bft)
31.07.2014 04:30 13,3 C 12,2 C 96 % 1015,8 hPa 0,0 l/m 0 min 0 min 0,0 UV-I 0 W/m 0,0 km/h (0 Bft)
31.07.2014 04:32 13,3 C 12,2 C 96 % 1015,8 hPa 0,0 l/m 0 min 0 min 0,0 UV-I 0 W/m 0,0 km/h (0 Bft)
31.07.2014 04:34 13,2 C 12,2 C 96 % 1015,7 hPa 0,0 l/m 0 min 0 min 0,0 UV-I 0 W/m 0,0 km/h (0 Bft)
31.07.2014 04:36 13,2 C 12,2 C 96 % 1015,7 hPa 0,0 l/m 0 min 0 min 0,0 UV-I 0 W/m 0,0 km/h (0 Bft)
31.07.2014 04:38 13,2 C 12,2 C 96 % 1015,7 hPa 0,0 l/m 0 min 0 min 0,0 UV-I 0 W/m 0,0 km/h (0 Bft)
31.07.2014 04:40 13,2 C 12,2 C 96 % 1015,7 hPa 0,0 l/m 0 min 0 min 0,0 UV-I 0 W/m 0,0 km/h (0 Bft)
31.07.2014 04:42 13,2 C 11,7 C 96 % 1015,7 hPa 0,0 l/m 0 min 0 min 0,0 UV-I 0 W/m 0,0 km/h (0 Bft)
31.07.2014 04:44 13,1 C 11,7 C 96 % 1015,8 hPa 0,0 l/m 0 min 0 min 0,0 UV-I 0 W/m 0,0 km/h (0 Bft)
31.07.2014 04:46 13,1 C 11,7 C 96 % 1015,7 hPa 0,0 l/m 0 min 0 min 0,0 UV-I 0 W/m 0,0 km/h (0 Bft)
31.07.2014 04:48 13,1 C 11,7 C 97 % 1015,9 hPa 0,0 l/m 0 min 0 min 0,0 UV-I 0 W/m 0,0 km/h (0 Bft)
31.07.2014 04:50 13,1 C 11,7 C 97 % 1015,8 hPa 0,0 l/m 0 min 0 min 0,0 UV-I 0 W/m 0,0 km/h (0 Bft)
31.07.2014 04:52 13,1 C 11,7 C 97 % 1015,8 hPa 0,0 l/m 0 min 0 min 0,0 UV-I 0 W/m 0,0 km/h (0 Bft)
31.07.2014 04:54 13,1 C 11,7 C 97 % 1015,8 hPa 0,0 l/m 0 min 0 min 0,0 UV-I 0 W/m 0,0 km/h (0 Bft)
31.07.2014 04:56 13,1 C 11,7 C 97 % 1015,7 hPa 0,0 l/m 0 min 0 min 0,0 UV-I 0 W/m 0,0 km/h (0 Bft)
31.07.2014 04:58 13,1 C 11,7 C 97 % 1015,7 hPa 0,0 l/m 0 min 0 min 0,0 UV-I 0 W/m 0,0 km/h (0 Bft)
31.07.2014 05:00 13,1 C 11,7 C 97 % 1015,7 hPa 0,0 l/m 0 min 0 min 0,0 UV-I 0 W/m 0,0 km/h (0 Bft)
31.07.2014 05:02 13,1 C 11,7 C 97 % 1015,7 hPa 0,0 l/m 0 min 0 min 0,0 UV-I 0 W/m 0,0 km/h (0 Bft)
31.07.2014 05:04 13,1 C 11,7 C 97 % 1015,6 hPa 0,0 l/m 0 min 0 min 0,0 UV-I 0 W/m 0,0 km/h (0 Bft)
31.07.2014 05:06 13,1 C 11,7 C 97 % 1015,7 hPa 0,0 l/m 0 min 0 min 0,0 UV-I 0 W/m 0,0 km/h (0 Bft)
31.07.2014 05:08 13,1 C 11,7 C 97 % 1015,6 hPa 0,0 l/m 0 min 0 min 0,0 UV-I 0 W/m 0,0 km/h (0 Bft)
31.07.2014 05:10 13,0 C 11,7 C 97 % 1015,7 hPa 0,0 l/m 0 min 0 min 0,0 UV-I 0 W/m 0,0 km/h (0 Bft)
31.07.2014 05:12 13,0 C 11,7 C 97 % 1015,6 hPa 0,0 l/m 0 min 0 min 0,0 UV-I 0 W/m 0,0 km/h (0 Bft)
31.07.2014 05:14 12,9 C 11,7 C 97 % 1015,6 hPa 0,0 l/m 0 min 0 min 0,0 UV-I 0 W/m 0,0 km/h (0 Bft)
31.07.2014 05:16 12,9 C 11,7 C 97 % 1015,6 hPa 0,0 l/m 0 min 0 min 0,0 UV-I 0 W/m 0,0 km/h (0 Bft)
31.07.2014 05:18 12,9 C 11,7 C 97 % 1015,6 hPa 0,0 l/m 0 min 0 min 0,0 UV-I 0 W/m 0,0 km/h (0 Bft)
31.07.2014 05:20 12,9 C 11,7 C 97 % 1015,6 hPa 0,0 l/m 0 min 0 min 0,0 UV-I 0 W/m 0,0 km/h (0 Bft)
31.07.2014 05:22 12,9 C 11,7 C 97 % 1015,6 hPa 0,0 l/m 0 min 0 min 0,0 UV-I 0 W/m 0,0 km/h (0 Bft)
31.07.2014 05:24 12,9 C 11,7 C 97 % 1015,6 hPa 0,0 l/m 0 min 0 min 0,0 UV-I 0 W/m 0,0 km/h (0 Bft)
31.07.2014 05:26 12,9 C 11,7 C 97 % 1015,6 hPa 0,0 l/m 0 min 0 min 0,0 UV-I 0 W/m 0,0 km/h (0 Bft)
31.07.2014 05:28 12,9 C 11,7 C 97 % 1015,7 hPa 0,0 l/m 0 min 0 min 0,0 UV-I 0 W/m 0,0 km/h (0 Bft)
31.07.2014 05:30 12,8 C 11,7 C 97 % 1015,6 hPa 0,0 l/m 0 min 0 min 0,0 UV-I 0 W/m 0,0 km/h (0 Bft)
31.07.2014 05:32 12,8 C 11,7 C 97 % 1015,6 hPa 0,0 l/m 0 min 0 min 0,0 UV-I 0 W/m 0,0 km/h (0 Bft)
31.07.2014 05:34 12,8 C 11,7 C 97 % 1015,6 hPa 0,0 l/m 0 min 0 min 0,0 UV-I 0 W/m 0,0 km/h (0 Bft)
31.07.2014 05:36 12,8 C 11,7 C 97 % 1015,6 hPa 0,0 l/m 0 min 0 min 0,0 UV-I 0 W/m 0,0 km/h (0 Bft)
31.07.2014 05:38 12,8 C 11,7 C 97 % 1015,6 hPa 0,0 l/m 0 min 0 min 0,0 UV-I 0 W/m 0,0 km/h (0 Bft)
31.07.2014 05:40 12,8 C 11,7 C 97 % 1015,7 hPa 0,0 l/m 0 min 0 min 0,0 UV-I 0 W/m 0,0 km/h (0 Bft)
31.07.2014 05:42 12,7 C 11,7 C 97 % 1015,7 hPa 0,0 l/m 0 min 0 min 0,0 UV-I 0 W/m 0,0 km/h (0 Bft)
31.07.2014 05:44 12,7 C 11,7 C 97 % 1015,7 hPa 0,0 l/m 0 min 0 min 0,0 UV-I 0 W/m 0,0 km/h (0 Bft)
31.07.2014 05:46 12,7 C 11,7 C 97 % 1015,7 hPa 0,0 l/m 0 min 0 min 0,0 UV-I 0 W/m 0,0 km/h (0 Bft)
31.07.2014 05:48 12,7 C 11,7 C 97 % 1015,7 hPa 0,0 l/m 0 min 0 min 0,0 UV-I 0 W/m 0,0 km/h (0 Bft)
31.07.2014 05:50 12,6 C 11,7 C 97 % 1015,7 hPa 0,0 l/m 0 min 0 min 0,0 UV-I 0 W/m 0,0 km/h (0 Bft)
31.07.2014 05:52 12,6 C 11,7 C 97 % 1015,8 hPa 0,0 l/m 0 min 0 min 0,0 UV-I 1 W/m 0,0 km/h (0 Bft)
31.07.2014 05:54 12,6 C 11,7 C 97 % 1015,8 hPa 0,0 l/m 0 min 0 min 0,0 UV-I 5 W/m 0,0 km/h (0 Bft)
31.07.2014 05:56 12,6 C 11,7 C 97 % 1015,8 hPa 0,0 l/m 0 min 0 min 0,0 UV-I 5 W/m 0,0 km/h (0 Bft)
31.07.2014 05:58 12,6 C 11,7 C 97 % 1015,9 hPa 0,0 l/m 0 min 0 min 0,0 UV-I 5 W/m 0,0 km/h (0 Bft)
31.07.2014 06:00 12,6 C 11,7 C 97 % 1015,9 hPa 0,0 l/m 0 min 0 min 0,0 UV-I 7 W/m 0,0 km/h (0 Bft)
31.07.2014 06:02 12,6 C 11,7 C 97 % 1015,9 hPa 0,0 l/m 0 min 0 min 0,0 UV-I 7 W/m 0,0 km/h (0 Bft)
31.07.2014 06:06 12,6 C 11,7 C 97 % 1015,9 hPa 0,0 l/m 0 min 0 min 0,0 UV-I 8 W/m 0,0 km/h (0 Bft)
31.07.2014 06:08 12,6 C 11,1 C 98 % 1015,9 hPa 0,0 l/m 0 min 0 min 0,0 UV-I 9 W/m 0,0 km/h (0 Bft)
31.07.2014 06:10 12,6 C 11,1 C 97 % 1015,9 hPa 0,0 l/m 0 min 0 min 0,0 UV-I 11 W/m 0,0 km/h (0 Bft)
31.07.2014 06:12 12,6 C 11,1 C 97 % 1015,9 hPa 0,0 l/m 0 min 0 min 0,0 UV-I 12 W/m 0,0 km/h (0 Bft)
31.07.2014 06:14 12,6 C 11,7 C 97 % 1016,0 hPa 0,0 l/m 2 min 0 min 0,0 UV-I 13 W/m 0,0 km/h (0 Bft)
31.07.2014 06:16 12,6 C 11,7 C 97 % 1016,0 hPa 0,0 l/m 2 min 0 min 0,0 UV-I 16 W/m 0,0 km/h (0 Bft)
31.07.2014 06:18 12,6 C 11,7 C 97 % 1016,1 hPa 0,0 l/m 2 min 0 min 0,0 UV-I 18 W/m 0,0 km/h (0 Bft)
31.07.2014 06:20 12,6 C 11,7 C 97 % 1016,1 hPa 0,0 l/m 2 min 0 min 0,0 UV-I 20 W/m 0,0 km/h (0 Bft)
31.07.2014 06:22 12,6 C 11,7 C 97 % 1016,1 hPa 0,0 l/m 2 min 0 min 0,0 UV-I 23 W/m 0,0 km/h (0 Bft)
31.07.2014 06:24 12,5 C 11,7 C 97 % 1016,2 hPa 0,0 l/m 2 min 0 min 0,0 UV-I 26 W/m 0,0 km/h (0 Bft)
31.07.2014 06:26 12,5 C 11,7 C 98 % 1016,1 hPa 0,0 l/m 2 min 0 min 0,0 UV-I 30 W/m 0,0 km/h (0 Bft)
31.07.2014 06:28 12,5 C 11,7 C 98 % 1016,0 hPa 0,0 l/m 2 min 0 min 0,0 UV-I 32 W/m 0,0 km/h (0 Bft)
31.07.2014 06:30 12,6 C 11,7 C 98 % 1016,2 hPa 0,0 l/m 2 min 0 min 0,0 UV-I 36 W/m 0,0 km/h (0 Bft)
31.07.2014 06:32 12,6 C 11,7 C 98 % 1016,2 hPa 0,0 l/m 2 min 0 min 0,0 UV-I 40 W/m 0,0 km/h (0 Bft)
31.07.2014 06:34 12,6 C 11,7 C 98 % 1016,2 hPa 0,0 l/m 2 min 0 min 0,0 UV-I 44 W/m 0,0 km/h (0 Bft)
31.07.2014 06:36 12,6 C 11,7 C 98 % 1016,2 hPa 0,0 l/m 2 min 0 min 0,0 UV-I 48 W/m 0,0 km/h (0 Bft)
31.07.2014 06:38 12,7 C 11,7 C 98 % 1016,2 hPa 0,0 l/m 2 min 0 min 0,0 UV-I 52 W/m 0,0 km/h (0 Bft)
31.07.2014 06:40 12,7 C 11,7 C 98 % 1016,2 hPa 0,0 l/m 2 min 0 min 0,0 UV-I 55 W/m 0,0 km/h (0 Bft)
31.07.2014 06:42 12,7 C 11,7 C 98 % 1016,2 hPa 0,0 l/m 2 min 0 min 0,0 UV-I 60 W/m 0,0 km/h (0 Bft)
31.07.2014 06:44 12,7 C 11,7 C 98 % 1016,2 hPa 0,0 l/m 2 min 0 min 0,0 UV-I 65 W/m 0,0 km/h (0 Bft)
31.07.2014 06:46 12,7 C 11,7 C 98 % 1016,2 hPa 0,0 l/m 2 min 0 min 0,0 UV-I 69 W/m 0,0 km/h (0 Bft)
31.07.2014 06:48 12,7 C 11,7 C 98 % 1016,2 hPa 0,0 l/m 2 min 0 min 0,0 UV-I 73 W/m 0,0 km/h (0 Bft)
31.07.2014 06:50 12,8 C 11,7 C 98 % 1016,2 hPa 0,0 l/m 2 min 0 min 0,0 UV-I 78 W/m 0,0 km/h (0 Bft)
31.07.2014 06:52 12,8 C 11,7 C 98 % 1016,2 hPa 0,0 l/m 2 min 0 min 0,0 UV-I 83 W/m 0,0 km/h (0 Bft)
31.07.2014 06:54 12,8 C 11,7 C 98 % 1016,1 hPa 0,0 l/m 2 min 0 min 0,0 UV-I 88 W/m 0,0 km/h (0 Bft)
31.07.2014 06:56 12,8 C 11,7 C 98 % 1016,1 hPa 0,0 l/m 2 min 0 min 0,0 UV-I 93 W/m 0,0 km/h (0 Bft)
31.07.2014 06:58 12,8 C 11,7 C 98 % 1016,1 hPa 0,0 l/m 2 min 0 min 0,0 UV-I 97 W/m 2,1 km/h (1 Bft)
31.07.2014 07:00 12,8 C 12,2 C 98 % 1016,1 hPa 0,0 l/m 2 min 0 min 0,0 UV-I 102 W/m 0,0 km/h (0 Bft)
31.07.2014 07:02 12,9 C 12,2 C 98 % 1016,2 hPa 0,0 l/m 2 min 0 min 0,0 UV-I 108 W/m 0,0 km/h (0 Bft)
31.07.2014 07:04 12,9 C 12,2 C 98 % 1016,1 hPa 0,0 l/m 2 min 0 min 0,0 UV-I 113 W/m 0,0 km/h (0 Bft)
31.07.2014 07:06 12,9 C 12,2 C 98 % 1016,2 hPa 0,0 l/m 2 min 0 min 0,0 UV-I 120 W/m 0,0 km/h (0 Bft)
31.07.2014 07:08 12,9 C 12,2 C 98 % 1016,2 hPa 0,0 l/m 2 min 0 min 0,0 UV-I 125 W/m 0,0 km/h (0 Bft)
31.07.2014 07:10 12,9 C 12,2 C 98 % 1016,2 hPa 0,0 l/m 2 min 0 min 0,0 UV-I 129 W/m 0,0 km/h (0 Bft)
31.07.2014 07:12 13,0 C 12,2 C 98 % 1016,2 hPa 0,0 l/m 2 min 0 min 0,0 UV-I 134 W/m 2,1 km/h (1 Bft)
31.07.2014 07:14 13,0 C 12,2 C 98 % 1016,1 hPa 0,0 l/m 2 min 0 min 0,0 UV-I 139 W/m 2,1 km/h (1 Bft)
31.07.2014 07:16 13,1 C 12,2 C 98 % 1016,1 hPa 0,0 l/m 2 min 0 min 0,0 UV-I 144 W/m 6,3 km/h (2 Bft)
31.07.2014 07:18 13,1 C 12,2 C 98 % 1016,1 hPa 0,0 l/m 2 min 0 min 0,0 UV-I 149 W/m 0,0 km/h (0 Bft)
31.07.2014 07:20 13,1 C 12,2 C 98 % 1016,2 hPa 0,0 l/m 2 min 0 min 0,0 UV-I 153 W/m 6,3 km/h (2 Bft)
31.07.2014 07:22 13,2 C 12,8 C 98 % 1016,3 hPa 0,0 l/m 2 min 0 min 0,0 UV-I 158 W/m 2,1 km/h (1 Bft)
31.07.2014 07:24 13,2 C 12,8 C 98 % 1016,3 hPa 0,0 l/m 2 min 0 min 0,0 UV-I 163 W/m 2,1 km/h (1 Bft)
31.07.2014 07:26 13,3 C 12,8 C 98 % 1016,3 hPa 0,0 l/m 2 min 0 min 0,0 UV-I 167 W/m 2,1 km/h (1 Bft)
31.07.2014 07:28 13,3 C 12,8 C 98 % 1016,3 hPa 0,0 l/m 2 min 0 min 0,0 UV-I 171 W/m 0,0 km/h (0 Bft)
31.07.2014 07:30 13,4 C 12,8 C 98 % 1016,2 hPa 0,0 l/m 2 min 0 min 0,0 UV-I 176 W/m 2,1 km/h (1 Bft)
31.07.2014 07:32 13,4 C 12,8 C 98 % 1016,2 hPa 0,0 l/m 2 min 0 min 0,0 UV-I 179 W/m 2,1 km/h (1 Bft)
31.07.2014 07:34 13,4 C 12,8 C 98 % 1016,3 hPa 0,0 l/m 2 min 0 min 0,0 UV-I 184 W/m 0,0 km/h (0 Bft)
31.07.2014 07:36 13,5 C 12,8 C 98 % 1016,2 hPa 0,0 l/m 2 min 0 min 0,0 UV-I 190 W/m 0,0 km/h (0 Bft)
31.07.2014 07:38 13,5 C 12,8 C 98 % 1016,3 hPa 0,0 l/m 2 min 0 min 0,0 UV-I 193 W/m 0,0 km/h (0 Bft)
31.07.2014 07:40 13,6 C 12,8 C 98 % 1016,2 hPa 0,0 l/m 2 min 0 min 0,0 UV-I 198 W/m 0,0 km/h (0 Bft)
31.07.2014 07:42 13,7 C 12,8 C 98 % 1016,2 hPa 0,0 l/m 2 min 0 min 0,0 UV-I 204 W/m 0,0 km/h (0 Bft)
31.07.2014 07:44 13,7 C 13,3 C 98 % 1016,2 hPa 0,0 l/m 2 min 0 min 0,0 UV-I 208 W/m 2,1 km/h (1 Bft)
31.07.2014 07:46 13,8 C 13,3 C 98 % 1016,2 hPa 0,0 l/m 2 min 0 min 0,0 UV-I 213 W/m 0,0 km/h (0 Bft)
31.07.2014 07:48 13,8 C 13,3 C 98 % 1016,2 hPa 0,0 l/m 2 min 0 min 0,0 UV-I 219 W/m 6,3 km/h (2 Bft)
31.07.2014 07:50 13,9 C 13,3 C 98 % 1016,2 hPa 0,0 l/m 2 min 0 min 0,0 UV-I 224 W/m 6,3 km/h (2 Bft)
31.07.2014 07:52 13,9 C 13,3 C 98 % 1016,2 hPa 0,0 l/m 2 min 0 min 0,0 UV-I 229 W/m 2,1 km/h (1 Bft)
31.07.2014 07:54 14,0 C 13,3 C 97 % 1016,3 hPa 0,0 l/m 2 min 0 min 0,0 UV-I 233 W/m 6,3 km/h (2 Bft)
31.07.2014 07:56 14,1 C 13,3 C 98 % 1016,2 hPa 0,0 l/m 2 min 0 min 0,0 UV-I 238 W/m 2,1 km/h (1 Bft)
31.07.2014 07:58 14,2 C 13,3 C 97 % 1016,2 hPa 0,0 l/m 2 min 0 min 0,0 UV-I 242 W/m 2,1 km/h (1 Bft)
31.07.2014 08:00 14,2 C 13,3 C 97 % 1016,2 hPa 0,0 l/m 2 min 0 min 0,0 UV-I 248 W/m 0,0 km/h (0 Bft)
31.07.2014 08:02 14,2 C 13,3 C 97 % 1016,2 hPa 0,0 l/m 2 min 0 min 0,0 UV-I 253 W/m 4,2 km/h (1 Bft)
31.07.2014 08:04 14,2 C 13,3 C 97 % 1016,2 hPa 0,0 l/m 2 min 0 min 0,0 UV-I 258 W/m 4,2 km/h (1 Bft)
31.07.2014 08:06 14,2 C 13,3 C 97 % 1016,2 hPa 0,0 l/m 2 min 0 min 0,0 UV-I 264 W/m 2,1 km/h (1 Bft)
31.07.2014 08:08 14,2 C 13,3 C 97 % 1016,2 hPa 0,0 l/m 2 min 0 min 0,0 UV-I 269 W/m 6,3 km/h (2 Bft)
31.07.2014 08:10 14,4 C 13,3 C 97 % 1016,3 hPa 0,0 l/m 2 min 0 min 0,0 UV-I 275 W/m 2,1 km/h (1 Bft)
31.07.2014 08:12 14,4 C 13,3 C 96 % 1016,2 hPa 0,0 l/m 2 min 0 min 0,0 UV-I 280 W/m 0,0 km/h (0 Bft)
31.07.2014 08:14 14,5 C 13,9 C 96 % 1016,2 hPa 0,0 l/m 2 min 0 min 0,0 UV-I 287 W/m 0,0 km/h (0 Bft)
31.07.2014 08:16 14,6 C 13,9 C 96 % 1016,2 hPa 0,0 l/m 2 min 0 min 0,0 UV-I 289 W/m 0,0 km/h (0 Bft)
31.07.2014 08:18 14,6 C 13,9 C 96 % 1016,3 hPa 0,0 l/m 2 min 0 min 0,0 UV-I 295 W/m 6,3 km/h (2 Bft)
31.07.2014 08:20 14,7 C 13,9 C 96 % 1016,3 hPa 0,0 l/m 2 min 0 min 0,0 UV-I 300 W/m 2,1 km/h (1 Bft)
31.07.2014 08:22 14,8 C 13,9 C 96 % 1016,3 hPa 0,0 l/m 2 min 0 min 0,0 UV-I 306 W/m 8,4 km/h (2 Bft)
31.07.2014 08:24 14,9 C 13,9 C 96 % 1016,3 hPa 0,0 l/m 2 min 0 min 0,0 UV-I 312 W/m 10,5 km/h (2 Bft)
31.07.2014 08:26 14,9 C 13,9 C 96 % 1016,3 hPa 0,0 l/m 2 min 0 min 0,0 UV-I 317 W/m 10,5 km/h (2 Bft)
31.07.2014 08:28 14,9 C 13,9 C 96 % 1016,3 hPa 0,0 l/m 2 min 0 min 0,0 UV-I 323 W/m 10,5 km/h (2 Bft)
31.07.2014 08:30 15,0 C 13,9 C 95 % 1016,3 hPa 0,0 l/m 2 min 0 min 0,0 UV-I 328 W/m 8,4 km/h (2 Bft)
31.07.2014 08:32 15,1 C 13,9 C 95 % 1016,2 hPa 0,0 l/m 2 min 0 min 0,0 UV-I 334 W/m 0,0 km/h (0 Bft)
31.07.2014 08:34 15,1 C 13,9 C 95 % 1016,2 hPa 0,0 l/m 2 min 0 min 0,0 UV-I 340 W/m 0,0 km/h (0 Bft)
31.07.2014 08:36 15,2 C 14,4 C 95 % 1016,2 hPa 0,0 l/m 2 min 0 min 0,0 UV-I 345 W/m 8,4 km/h (2 Bft)
31.07.2014 08:38 15,2 C 14,4 C 94 % 1016,2 hPa 0,0 l/m 2 min 0 min 0,0 UV-I 348 W/m 0,0 km/h (0 Bft)
31.07.2014 08:40 15,3 C 14,4 C 94 % 1016,2 hPa 0,0 l/m 2 min 0 min 0,0 UV-I 352 W/m 0,0 km/h (0 Bft)
31.07.2014 08:42 15,3 C 14,4 C 94 % 1016,2 hPa 0,0 l/m 2 min 0 min 0,3 UV-I 358 W/m 0,0 km/h (0 Bft)
31.07.2014 08:44 15,4 C 14,4 C 94 % 1016,3 hPa 0,0 l/m 2 min 0 min 0,5 UV-I 365 W/m 0,0 km/h (0 Bft)
31.07.2014 08:46 15,6 C 14,4 C 94 % 1016,2 hPa 0,0 l/m 2 min 0 min 0,5 UV-I 372 W/m 0,0 km/h (0 Bft)
31.07.2014 08:48 15,8 C 14,4 C 93 % 1016,3 hPa 0,0 l/m 2 min 0 min 0,6 UV-I 378 W/m 0,0 km/h (0 Bft)
31.07.2014 08:50 15,9 C 14,4 C 93 % 1016,3 hPa 0,0 l/m 2 min 0 min 0,6 UV-I 381 W/m 6,3 km/h (2 Bft)
31.07.2014 08:52 15,9 C 14,4 C 92 % 1016,3 hPa 0,0 l/m 2 min 0 min 0,6 UV-I 387 W/m 6,3 km/h (2 Bft)
31.07.2014 08:54 16,1 C 15,0 C 92 % 1016,4 hPa 0,0 l/m 2 min 0 min 0,7 UV-I 390 W/m 0,0 km/h (0 Bft)
31.07.2014 08:56 16,1 C 15,0 C 91 % 1016,3 hPa 0,0 l/m 2 min 0 min 0,7 UV-I 392 W/m 0,0 km/h (0 Bft)
31.07.2014 08:58 16,1 C 15,0 C 91 % 1016,3 hPa 0,0 l/m 2 min 0 min 0,7 UV-I 396 W/m 0,0 km/h (0 Bft)
31.07.2014 09:00 16,2 C 15,0 C 91 % 1016,2 hPa 0,0 l/m 2 min 0 min 0,8 UV-I 402 W/m 0,0 km/h (0 Bft)
31.07.2014 09:02 16,3 C 15,0 C 91 % 1016,2 hPa 0,0 l/m 2 min 0 min 0,8 UV-I 412 W/m 0,0 km/h (0 Bft)
31.07.2014 09:04 16,4 C 15,0 C 90 % 1016,2 hPa 0,0 l/m 2 min 0 min 0,9 UV-I 419 W/m 0,0 km/h (0 Bft)
31.07.2014 09:06 16,4 C 15,0 C 89 % 1016,2 hPa 0,0 l/m 2 min 0 min 0,9 UV-I 422 W/m 0,0 km/h (0 Bft)
31.07.2014 09:08 16,4 C 15,0 C 89 % 1016,2 hPa 0,0 l/m 2 min 0 min 0,9 UV-I 428 W/m 0,0 km/h (0 Bft)
31.07.2014 09:10 16,5 C 15,0 C 89 % 1016,2 hPa 0,0 l/m 2 min 0 min 1,0 UV-I 433 W/m 0,0 km/h (0 Bft)
31.07.2014 09:12 16,6 C 15,0 C 89 % 1016,3 hPa 0,0 l/m 2 min 0 min 1,0 UV-I 436 W/m 0,0 km/h (0 Bft)
31.07.2014 09:14 16,8 C 15,0 C 89 % 1016,2 hPa 0,0 l/m 2 min 0 min 1,0 UV-I 443 W/m 0,0 km/h (0 Bft)
31.07.2014 09:16 16,9 C 15,6 C 88 % 1016,3 hPa 0,0 l/m 2 min 0 min 1,1 UV-I 447 W/m 2,1 km/h (1 Bft)
31.07.2014 09:18 17,0 C 15,6 C 88 % 1016,3 hPa 0,0 l/m 2 min 0 min 1,1 UV-I 449 W/m 0,0 km/h (0 Bft)
31.07.2014 09:20 17,1 C 15,6 C 87 % 1016,3 hPa 0,0 l/m 2 min 0 min 1,2 UV-I 455 W/m 0,0 km/h (0 Bft)
31.07.2014 09:22 17,2 C 15,6 C 87 % 1016,3 hPa 0,0 l/m 2 min 0 min 1,2 UV-I 462 W/m 0,0 km/h (0 Bft)
31.07.2014 09:24 17,3 C 15,6 C 86 % 1016,3 hPa 0,0 l/m 2 min 0 min 1,2 UV-I 465 W/m 0,0 km/h (0 Bft)
31.07.2014 09:26 17,4 C 15,6 C 86 % 1016,3 hPa 0,0 l/m 2 min 0 min 1,3 UV-I 472 W/m 8,4 km/h (2 Bft)
31.07.2014 09:28 17,6 C 15,6 C 86 % 1016,3 hPa 0,0 l/m 2 min 0 min 1,3 UV-I 470 W/m 0,0 km/h (0 Bft)
31.07.2014 09:30 17,7 C 15,6 C 85 % 1016,3 hPa 0,0 l/m 2 min 0 min 1,3 UV-I 479 W/m 8,4 km/h (2 Bft)
31.07.2014 09:32 17,7 C 16,1 C 84 % 1016,3 hPa 0,0 l/m 2 min 0 min 1,4 UV-I 489 W/m 0,0 km/h (0 Bft)
31.07.2014 09:34 17,8 C 16,1 C 84 % 1016,3 hPa 0,0 l/m 2 min 0 min 1,5 UV-I 495 W/m 0,0 km/h (0 Bft)
31.07.2014 09:36 17,9 C 16,7 C 85 % 1016,3 hPa 0,0 l/m 2 min 0 min 1,5 UV-I 499 W/m 0,0 km/h (0 Bft)
31.07.2014 09:38 17,9 C 16,7 C 85 % 1016,3 hPa 0,0 l/m 2 min 0 min 1,5 UV-I 502 W/m 0,0 km/h (0 Bft)
31.07.2014 09:40 18,1 C 16,7 C 84 % 1016,3 hPa 0,0 l/m 2 min 0 min 1,6 UV-I 506 W/m 0,0 km/h (0 Bft)
31.07.2014 09:42 18,1 C 16,7 C 82 % 1016,3 hPa 0,0 l/m 2 min 0 min 1,6 UV-I 507 W/m 2,1 km/h (1 Bft)
31.07.2014 09:44 18,2 C 16,7 C 83 % 1016,3 hPa 0,0 l/m 2 min 0 min 1,7 UV-I 513 W/m 0,0 km/h (0 Bft)
31.07.2014 09:46 18,3 C 17,2 C 83 % 1016,3 hPa 0,0 l/m 2 min 0 min 1,7 UV-I 522 W/m 0,0 km/h (0 Bft)
31.07.2014 09:48 18,5 C 18,3 C 82 % 1016,3 hPa 0,0 l/m 2 min 0 min 1,8 UV-I 527 W/m 0,0 km/h (0 Bft)
31.07.2014 09:50 18,6 C 18,9 C 82 % 1016,3 hPa 0,0 l/m 2 min 0 min 1,8 UV-I 530 W/m 6,3 km/h (2 Bft)
31.07.2014 09:52 18,6 C 20,0 C 81 % 1016,3 hPa 0,0 l/m 2 min 0 min 1,9 UV-I 530 W/m 6,3 km/h (2 Bft)
31.07.2014 09:54 18,6 C 21,1 C 80 % 1016,3 hPa 0,0 l/m 2 min 0 min 1,9 UV-I 531 W/m 2,1 km/h (1 Bft)
31.07.2014 09:56 18,6 C 22,2 C 80 % 1016,3 hPa 0,0 l/m 2 min 0 min 1,9 UV-I 540 W/m 0,0 km/h (0 Bft)
31.07.2014 09:58 18,7 C 23,3 C 80 % 1016,3 hPa 0,0 l/m 2 min 0 min 2,0 UV-I 542 W/m 0,0 km/h (0 Bft)
31.07.2014 10:00 18,7 C 23,9 C 78 % 1016,3 hPa 0,0 l/m 2 min 0 min 2,0 UV-I 548 W/m 0,0 km/h (0 Bft)
31.07.2014 10:02 18,9 C 24,4 C 80 % 1016,3 hPa 0,0 l/m 2 min 0 min 2,1 UV-I 555 W/m 0,0 km/h (0 Bft)
31.07.2014 10:04 18,8 C 24,4 C 79 % 1016,3 hPa 0,0 l/m 2 min 0 min 2,2 UV-I 560 W/m 0,0 km/h (0 Bft)
31.07.2014 10:06 18,9 C 24,4 C 79 % 1016,3 hPa 0,0 l/m 2 min 0 min 2,2 UV-I 563 W/m 6,3 km/h (2 Bft)
31.07.2014 10:08 18,9 C 24,4 C 79 % 1016,3 hPa 0,0 l/m 2 min 0 min 2,1 UV-I 568 W/m 0,0 km/h (0 Bft)
31.07.2014 10:10 19,1 C 25,0 C 78 % 1016,3 hPa 0,0 l/m 2 min 0 min 2,1 UV-I 570 W/m 0,0 km/h (0 Bft)
31.07.2014 10:12 19,3 C 25,6 C 79 % 1016,3 hPa 0,0 l/m 2 min 0 min 2,3 UV-I 575 W/m 0,0 km/h (0 Bft)
31.07.2014 10:14 19,3 C 25,6 C 78 % 1016,2 hPa 0,0 l/m 2 min 0 min 2,4 UV-I 580 W/m 0,0 km/h (0 Bft)
31.07.2014 10:16 19,5 C 26,1 C 77 % 1016,3 hPa 0,0 l/m 2 min 0 min 2,4 UV-I 584 W/m 0,0 km/h (0 Bft)
31.07.2014 10:18 19,6 C 26,1 C 77 % 1016,2 hPa 0,0 l/m 2 min 0 min 2,5 UV-I 588 W/m 6,3 km/h (2 Bft)
31.07.2014 10:20 19,7 C 26,7 C 78 % 1016,2 hPa 0,0 l/m 2 min 0 min 2,5 UV-I 590 W/m 0,0 km/h (0 Bft)
31.07.2014 10:22 19,7 C 26,1 C 77 % 1016,2 hPa 0,0 l/m 2 min 0 min 2,6 UV-I 594 W/m 0,0 km/h (0 Bft)
31.07.2014 10:24 19,7 C 25,6 C 76 % 1016,3 hPa 0,0 l/m 2 min 0 min 2,6 UV-I 599 W/m 0,0 km/h (0 Bft)
31.07.2014 10:26 19,8 C 25,6 C 75 % 1016,3 hPa 0,0 l/m 2 min 0 min 2,7 UV-I 604 W/m 0,0 km/h (0 Bft)
31.07.2014 10:28 19,8 C 25,6 C 75 % 1016,3 hPa 0,0 l/m 2 min 0 min 2,7 UV-I 605 W/m 0,0 km/h (0 Bft)
31.07.2014 10:30 19,9 C 26,1 C 76 % 1016,2 hPa 0,0 l/m 2 min 0 min 2,7 UV-I 609 W/m 0,0 km/h (0 Bft)
31.07.2014 10:32 19,9 C 26,1 C 75 % 1016,2 hPa 0,0 l/m 2 min 0 min 2,8 UV-I 613 W/m 0,0 km/h (0 Bft)
31.07.2014 10:34 19,9 C 25,6 C 76 % 1016,2 hPa 0,0 l/m 2 min 0 min 2,8 UV-I 617 W/m 2,1 km/h (1 Bft)
31.07.2014 10:36 19,9 C 25,6 C 75 % 1016,2 hPa 0,0 l/m 2 min 0 min 2,9 UV-I 620 W/m 0,0 km/h (0 Bft)
31.07.2014 10:38 19,7 C 24,4 C 74 % 1016,2 hPa 0,0 l/m 2 min 0 min 2,9 UV-I 623 W/m 0,0 km/h (0 Bft)
31.07.2014 10:40 19,7 C 24,4 C 77 % 1016,2 hPa 0,0 l/m 2 min 0 min 3,0 UV-I 627 W/m 0,0 km/h (0 Bft)
31.07.2014 10:42 20,0 C 25,0 C 76 % 1016,3 hPa 0,0 l/m 2 min 0 min 3,0 UV-I 632 W/m 10,5 km/h (2 Bft)
31.07.2014 10:44 20,1 C 25,0 C 75 % 1016,3 hPa 0,0 l/m 2 min 0 min 3,1 UV-I 635 W/m 6,3 km/h (2 Bft)
31.07.2014 10:46 20,2 C 24,4 C 74 % 1016,3 hPa 0,0 l/m 2 min 0 min 3,1 UV-I 638 W/m 2,1 km/h (1 Bft)
31.07.2014 10:48 20,3 C 23,3 C 74 % 1016,2 hPa 0,0 l/m 2 min 0 min 3,1 UV-I 641 W/m 2,1 km/h (1 Bft)
31.07.2014 10:50 20,2 C 23,3 C 73 % 1016,2 hPa 0,0 l/m 2 min 0 min 3,2 UV-I 646 W/m 2,1 km/h (1 Bft)
31.07.2014 10:52 20,2 C 23,9 C 71 % 1016,2 hPa 0,0 l/m 2 min 0 min 3,3 UV-I 651 W/m 2,1 km/h (1 Bft)
31.07.2014 10:54 20,3 C 23,9 C 72 % 1016,3 hPa 0,0 l/m 2 min 0 min 3,3 UV-I 652 W/m 8,4 km/h (2 Bft)
31.07.2014 10:56 20,6 C 23,9 C 74 % 1016,3 hPa 0,0 l/m 2 min 0 min 3,3 UV-I 655 W/m 0,0 km/h (0 Bft)
31.07.2014 10:58 20,6 C 23,9 C 73 % 1016,3 hPa 0,0 l/m 2 min 0 min 3,4 UV-I 658 W/m 0,0 km/h (0 Bft)
31.07.2014 11:00 20,7 C 24,4 C 71 % 1016,3 hPa 0,0 l/m 2 min 0 min 3,4 UV-I 661 W/m 0,0 km/h (0 Bft)
31.07.2014 11:02 20,7 C 25,6 C 71 % 1016,3 hPa 0,0 l/m 2 min 0 min 3,5 UV-I 664 W/m 0,0 km/h (0 Bft)
31.07.2014 11:04 20,6 C 25,0 C 71 % 1016,3 hPa 0,0 l/m 2 min 0 min 3,5 UV-I 665 W/m 10,5 km/h (2 Bft)
31.07.2014 11:06 20,7 C 25,6 C 74 % 1016,2 hPa 0,0 l/m 2 min 0 min 3,5 UV-I 668 W/m 0,0 km/h (0 Bft)
31.07.2014 11:08 20,7 C 24,4 C 72 % 1016,2 hPa 0,0 l/m 2 min 0 min 3,6 UV-I 672 W/m 0,0 km/h (0 Bft)
31.07.2014 11:10 20,7 C 24,4 C 72 % 1016,2 hPa 0,0 l/m 2 min 0 min 3,6 UV-I 675 W/m 8,4 km/h (2 Bft)
31.07.2014 11:12 20,8 C 24,4 C 72 % 1016,2 hPa 0,0 l/m 2 min 0 min 3,6 UV-I 678 W/m 8,4 km/h (2 Bft)
31.07.2014 11:14 21,0 C 23,9 C 74 % 1016,2 hPa 0,0 l/m 2 min 0 min 3,7 UV-I 681 W/m 0,0 km/h (0 Bft)
31.07.2014 11:16 21,1 C 23,3 C 72 % 1016,2 hPa 0,0 l/m 2 min 0 min 3,7 UV-I 682 W/m 8,4 km/h (2 Bft)
31.07.2014 11:18 21,2 C 23,3 C 72 % 1016,3 hPa 0,0 l/m 2 min 0 min 3,8 UV-I 685 W/m 12,6 km/h (3 Bft)
31.07.2014 11:20 21,2 C 22,8 C 71 % 1016,3 hPa 0,0 l/m 2 min 0 min 3,8 UV-I 688 W/m 8,4 km/h (2 Bft)
31.07.2014 11:22 21,2 C 22,2 C 72 % 1016,2 hPa 0,0 l/m 2 min 0 min 3,8 UV-I 687 W/m 8,4 km/h (2 Bft)
31.07.2014 11:24 21,2 C 22,2 C 70 % 1016,2 hPa 0,0 l/m 2 min 0 min 3,9 UV-I 690 W/m 2,1 km/h (1 Bft)
31.07.2014 11:26 21,0 C 21,7 C 71 % 1016,2 hPa 0,0 l/m 2 min 0 min 3,9 UV-I 695 W/m 0,0 km/h (0 Bft)
31.07.2014 11:28 21,2 C 21,7 C 72 % 1016,2 hPa 0,0 l/m 2 min 0 min 4,0 UV-I 699 W/m 2,1 km/h (1 Bft)
31.07.2014 11:30 21,3 C 21,7 C 72 % 1016,2 hPa 0,0 l/m 2 min 0 min 4,0 UV-I 702 W/m 0,0 km/h (0 Bft)
31.07.2014 11:32 21,6 C 21,7 C 74 % 1016,3 hPa 0,0 l/m 2 min 0 min 4,0 UV-I 704 W/m 10,5 km/h (2 Bft)
31.07.2014 11:34 21,6 C 22,2 C 71 % 1016,1 hPa 0,0 l/m 2 min 0 min 4,1 UV-I 710 W/m 4,2 km/h (1 Bft)
31.07.2014 11:36 21,7 C 23,3 C 73 % 1016,2 hPa 0,0 l/m 2 min 0 min 4,1 UV-I 710 W/m 2,1 km/h (1 Bft)
31.07.2014 11:38 22,1 C 23,9 C 72 % 1016,1 hPa 0,0 l/m 2 min 0 min 4,2 UV-I 712 W/m 8,4 km/h (2 Bft)
31.07.2014 11:40 22,3 C 24,4 C 69 % 1016,1 hPa 0,0 l/m 2 min 0 min 4,2 UV-I 714 W/m 10,5 km/h (2 Bft)
31.07.2014 11:42 22,2 C 25,0 C 68 % 1016,1 hPa 0,0 l/m 2 min 0 min 4,2 UV-I 718 W/m 10,5 km/h (2 Bft)
31.07.2014 11:44 22,1 C 25,0 C 69 % 1016,1 hPa 0,0 l/m 2 min 0 min 4,2 UV-I 719 W/m 8,4 km/h (2 Bft)
31.07.2014 11:46 22,1 C 25,0 C 68 % 1016,0 hPa 0,0 l/m 2 min 0 min 4,3 UV-I 721 W/m 6,3 km/h (2 Bft)
31.07.2014 11:48 21,9 C 25,0 C 67 % 1015,9 hPa 0,0 l/m 2 min 0 min 4,3 UV-I 724 W/m 8,4 km/h (2 Bft)
31.07.2014 11:50 21,7 C 25,0 C 68 % 1015,9 hPa 0,0 l/m 2 min 0 min 4,4 UV-I 726 W/m 8,4 km/h (2 Bft)
31.07.2014 11:52 21,7 C 25,6 C 70 % 1015,9 hPa 0,0 l/m 2 min 0 min 4,4 UV-I 731 W/m 16,7 km/h (3 Bft)
31.07.2014 11:54 21,9 C 25,6 C 68 % 1015,9 hPa 0,0 l/m 2 min 0 min 4,4 UV-I 732 W/m 12,6 km/h (3 Bft)
31.07.2014 11:56 22,0 C 26,1 C 68 % 1015,9 hPa 0,0 l/m 2 min 0 min 4,5 UV-I 735 W/m 12,6 km/h (3 Bft)
31.07.2014 11:58 22,2 C 26,7 C 70 % 1015,9 hPa 0,0 l/m 2 min 0 min 4,5 UV-I 739 W/m 6,3 km/h (2 Bft)
31.07.2014 12:00 22,1 C 26,1 C 66 % 1015,9 hPa 0,0 l/m 2 min 0 min 4,6 UV-I 741 W/m 6,3 km/h (2 Bft)
31.07.2014 12:02 21,9 C 25,6 C 67 % 1015,9 hPa 0,0 l/m 2 min 0 min 4,6 UV-I 744 W/m 4,2 km/h (1 Bft)
31.07.2014 12:06 22,0 C 26,7 C 69 % 1015,9 hPa 0,0 l/m 2 min 0 min 4,6 UV-I 745 W/m 6,3 km/h (2 Bft)
31.07.2014 12:08 22,2 C 26,1 C 65 % 1015,8 hPa 0,0 l/m 2 min 0 min 4,7 UV-I 748 W/m 8,4 km/h (2 Bft)
31.07.2014 12:10 22,4 C 26,7 C 68 % 1015,8 hPa 0,0 l/m 2 min 0 min 4,7 UV-I 749 W/m 12,6 km/h (3 Bft)
31.07.2014 12:12 22,5 C 25,6 C 65 % 1015,9 hPa 0,0 l/m 2 min 0 min 4,7 UV-I 750 W/m 10,5 km/h (2 Bft)
31.07.2014 12:14 22,6 C 26,1 C 69 % 1015,8 hPa 0,0 l/m 2 min 0 min 3,2 UV-I 748 W/m 12,6 km/h (3 Bft)
31.07.2014 12:16 22,8 C 26,1 C 65 % 1015,8 hPa 0,0 l/m 2 min 0 min 3,0 UV-I 749 W/m 14,6 km/h (3 Bft)
31.07.2014 12:18 22,8 C 26,7 C 66 % 1015,7 hPa 0,0 l/m 2 min 0 min 4,4 UV-I 750 W/m 0,0 km/h (0 Bft)
31.07.2014 12:20 22,6 C 27,2 C 64 % 1015,7 hPa 0,0 l/m 2 min 0 min 4,8 UV-I 751 W/m 2,1 km/h (1 Bft)
31.07.2014 12:22 22,9 C 27,2 C 69 % 1015,6 hPa 0,0 l/m 2 min 0 min 4,7 UV-I 743 W/m 8,4 km/h (2 Bft)
31.07.2014 12:24 23,0 C 26,7 C 66 % 1015,7 hPa 0,0 l/m 2 min 0 min 3,7 UV-I 687 W/m 8,4 km/h (2 Bft)
31.07.2014 12:26 22,9 C 26,1 C 67 % 1015,7 hPa 0,0 l/m 0 min 0 min 4,5 UV-I 203 W/m 8,4 km/h (2 Bft)
31.07.2014 12:28 22,8 C 26,7 C 66 % 1015,7 hPa 0,0 l/m 0 min 0 min 4,9 UV-I 199 W/m 12,6 km/h (3 Bft)
31.07.2014 12:30 23,1 C 27,2 C 66 % 1015,7 hPa 0,0 l/m 2 min 0 min 2,6 UV-I 755 W/m 12,6 km/h (3 Bft)
31.07.2014 12:32 23,1 C 26,7 C 67 % 1015,7 hPa 0,0 l/m 2 min 0 min 1,2 UV-I 758 W/m 2,1 km/h (1 Bft)
31.07.2014 12:34 23,1 C 27,2 C 66 % 1015,7 hPa 0,0 l/m 2 min 0 min 4,4 UV-I 762 W/m 6,3 km/h (2 Bft)
31.07.2014 12:36 23,1 C 27,2 C 64 % 1015,6 hPa 0,0 l/m 2 min 0 min 3,6 UV-I 765 W/m 2,1 km/h (1 Bft)
31.07.2014 12:38 23,0 C 27,2 C 64 % 1015,6 hPa 0,0 l/m 2 min 0 min 4,8 UV-I 765 W/m 10,5 km/h (2 Bft)
31.07.2014 12:40 22,9 C 26,7 C 64 % 1015,5 hPa 0,0 l/m 2 min 0 min 4,3 UV-I 766 W/m 10,5 km/h (2 Bft)
31.07.2014 12:42 22,8 C 26,1 C 66 % 1015,6 hPa 0,0 l/m 2 min 0 min 5,0 UV-I 765 W/m 6,3 km/h (2 Bft)
31.07.2014 12:44 22,7 C 25,6 C 64 % 1015,6 hPa 0,0 l/m 2 min 0 min 5,0 UV-I 758 W/m 10,5 km/h (2 Bft)
31.07.2014 12:46 22,8 C 25,6 C 67 % 1015,5 hPa 0,0 l/m 2 min 0 min 5,1 UV-I 704 W/m 10,5 km/h (2 Bft)
31.07.2014 12:48 22,8 C 25,0 C 64 % 1015,5 hPa 0,0 l/m 2 min 0 min 5,1 UV-I 585 W/m 14,6 km/h (3 Bft)
31.07.2014 12:50 22,8 C 24,4 C 68 % 1015,5 hPa 0,0 l/m 2 min 0 min 5,1 UV-I 401 W/m 12,6 km/h (3 Bft)
31.07.2014 12:52 22,9 C 25,0 C 66 % 1015,5 hPa 0,0 l/m 0 min 0 min 4,9 UV-I 285 W/m 6,3 km/h (2 Bft)
31.07.2014 12:54 23,1 C 24,4 C 66 % 1015,5 hPa 0,0 l/m 0 min 0 min 3,1 UV-I 313 W/m 8,4 km/h (2 Bft)
31.07.2014 12:56 23,4 C 24,4 C 66 % 1015,5 hPa 0,0 l/m 0 min 0 min 3,3 UV-I 364 W/m 2,1 km/h (1 Bft)
31.07.2014 12:58 23,5 C 24,4 C 66 % 1015,5 hPa 0,0 l/m 2 min 0 min 4,6 UV-I 612 W/m 0,0 km/h (0 Bft)
31.07.2014 13:00 23,6 C 24,4 C 69 % 1015,5 hPa 0,0 l/m 2 min 0 min 5,1 UV-I 769 W/m 2,1 km/h (1 Bft)
31.07.2014 13:02 23,7 C 24,4 C 66 % 1015,5 hPa 0,0 l/m 2 min 0 min 5,1 UV-I 771 W/m 6,3 km/h (2 Bft)
31.07.2014 13:04 23,8 C 24,4 C 67 % 1015,5 hPa 0,0 l/m 2 min 0 min 4,2 UV-I 771 W/m 10,5 km/h (2 Bft)
31.07.2014 13:06 23,9 C 24,4 C 66 % 1015,5 hPa 0,0 l/m 2 min 0 min 5,1 UV-I 770 W/m 18,8 km/h (3 Bft)
31.07.2014 13:08 23,8 C 24,4 C 65 % 1015,5 hPa 0,0 l/m 2 min 0 min 5,2 UV-I 772 W/m 12,6 km/h (3 Bft)
31.07.2014 13:10 23,6 C 24,4 C 64 % 1015,5 hPa 0,0 l/m 2 min 0 min 5,2 UV-I 773 W/m 14,6 km/h (3 Bft)
31.07.2014 13:12 23,9 C 23,9 C 64 % 1015,5 hPa 0,0 l/m 2 min 0 min 5,1 UV-I 771 W/m 6,3 km/h (2 Bft)
31.07.2014 13:14 23,8 C 23,9 C 63 % 1015,5 hPa 0,0 l/m 2 min 0 min 5,1 UV-I 770 W/m 6,3 km/h (2 Bft)
31.07.2014 13:16 23,8 C 23,9 C 64 % 1015,5 hPa 0,0 l/m 2 min 0 min 5,1 UV-I 770 W/m 12,6 km/h (3 Bft)
31.07.2014 13:18 23,8 C 23,9 C 62 % 1015,5 hPa 0,0 l/m 2 min 0 min 5,2 UV-I 774 W/m 16,7 km/h (3 Bft)
31.07.2014 13:20 23,8 C 24,4 C 64 % 1015,4 hPa 0,0 l/m 2 min 0 min 5,2 UV-I 773 W/m 8,4 km/h (2 Bft)
31.07.2014 13:22 23,9 C 24,4 C 63 % 1015,4 hPa 0,0 l/m 2 min 0 min 5,1 UV-I 767 W/m 10,5 km/h (2 Bft)
31.07.2014 13:24 24,0 C 23,9 C 66 % 1015,4 hPa 0,0 l/m 2 min 0 min 5,1 UV-I 768 W/m 14,6 km/h (3 Bft)
31.07.2014 13:26 23,9 C 23,9 C 65 % 1015,3 hPa 0,0 l/m 2 min 0 min 4,5 UV-I 771 W/m 6,3 km/h (2 Bft)
31.07.2014 13:28 24,1 C 23,9 C 66 % 1015,3 hPa 0,0 l/m 2 min 0 min 4,3 UV-I 769 W/m 0,0 km/h (0 Bft)
31.07.2014 13:30 23,9 C 23,9 C 63 % 1015,3 hPa 0,0 l/m 2 min 0 min 5,1 UV-I 768 W/m 4,2 km/h (1 Bft)
31.07.2014 13:32 23,8 C 23,9 C 65 % 1015,3 hPa 0,0 l/m 2 min 0 min 5,1 UV-I 766 W/m 6,3 km/h (2 Bft)
31.07.2014 13:34 23,8 C 23,9 C 64 % 1015,3 hPa 0,0 l/m 2 min 0 min 5,1 UV-I 771 W/m 8,4 km/h (2 Bft)
31.07.2014 13:36 23,6 C 23,3 C 63 % 1015,2 hPa 0,0 l/m 2 min 0 min 5,1 UV-I 764 W/m 4,2 km/h (1 Bft)
31.07.2014 13:38 23,7 C 23,3 C 65 % 1015,2 hPa 0,0 l/m 2 min 0 min 5,1 UV-I 767 W/m 12,6 km/h (3 Bft)
31.07.2014 13:40 23,8 C 23,9 C 64 % 1015,3 hPa 0,0 l/m 2 min 0 min 5,1 UV-I 768 W/m 10,5 km/h (2 Bft)
31.07.2014 13:42 24,1 C 23,9 C 63 % 1015,3 hPa 0,0 l/m 2 min 0 min 5,1 UV-I 768 W/m 14,6 km/h (3 Bft)
31.07.2014 13:44 24,0 C 23,3 C 65 % 1015,2 hPa 0,0 l/m 2 min 0 min 5,1 UV-I 767 W/m 8,4 km/h (2 Bft)
31.07.2014 13:46 24,1 C 23,3 C 65 % 1015,2 hPa 0,0 l/m 2 min 0 min 5,1 UV-I 771 W/m 10,5 km/h (2 Bft)
31.07.2014 13:48 24,3 C 23,3 C 65 % 1015,2 hPa 0,0 l/m 2 min 0 min 5,1 UV-I 763 W/m 14,6 km/h (3 Bft)
31.07.2014 13:50 24,6 C 23,9 C 65 % 1015,2 hPa 0,0 l/m 2 min 0 min 5,1 UV-I 765 W/m 14,6 km/h (3 Bft)
31.07.2014 13:52 24,5 C 23,9 C 60 % 1015,1 hPa 0,0 l/m 2 min 0 min 5,0 UV-I 757 W/m 12,6 km/h (3 Bft)
31.07.2014 13:54 24,4 C 23,3 C 65 % 1015,1 hPa 0,0 l/m 2 min 0 min 5,0 UV-I 760 W/m 14,6 km/h (3 Bft)
31.07.2014 13:56 24,6 C 23,9 C 63 % 1015,1 hPa 0,0 l/m 2 min 0 min 5,1 UV-I 765 W/m 18,8 km/h (3 Bft)
31.07.2014 13:58 24,4 C 23,9 C 61 % 1015,1 hPa 0,0 l/m 2 min 0 min 5,0 UV-I 761 W/m 12,6 km/h (3 Bft)
31.07.2014 14:00 24,4 C 23,3 C 62 % 1015,0 hPa 0,0 l/m 2 min 0 min 5,0 UV-I 760 W/m 8,4 km/h (2 Bft)
31.07.2014 14:02 24,5 C 23,3 C 61 % 1015,0 hPa 0,0 l/m 2 min 0 min 4,5 UV-I 758 W/m 8,4 km/h (2 Bft)
31.07.2014 14:04 24,5 C 23,3 C 63 % 1015,0 hPa 0,0 l/m 2 min 0 min 3,2 UV-I 757 W/m 6,3 km/h (2 Bft)
31.07.2014 14:06 24,6 C 23,3 C 60 % 1015,0 hPa 0,0 l/m 2 min 0 min 4,6 UV-I 754 W/m 10,5 km/h (2 Bft)
31.07.2014 14:08 24,6 C 23,9 C 63 % 1015,0 hPa 0,0 l/m 2 min 0 min 4,6 UV-I 753 W/m 10,5 km/h (2 Bft)
31.07.2014 14:10 24,5 C 23,9 C 62 % 1015,0 hPa 0,0 l/m 2 min 0 min 4,9 UV-I 751 W/m 8,4 km/h (2 Bft)
31.07.2014 14:12 24,6 C 23,9 C 62 % 1015,0 hPa 0,0 l/m 2 min 0 min 5,0 UV-I 753 W/m 8,4 km/h (2 Bft)
31.07.2014 14:14 24,8 C 23,9 C 61 % 1015,0 hPa 0,0 l/m 2 min 0 min 5,0 UV-I 758 W/m 16,7 km/h (3 Bft)
31.07.2014 14:16 24,9 C 23,9 C 61 % 1014,9 hPa 0,0 l/m 2 min 0 min 5,0 UV-I 755 W/m 14,6 km/h (3 Bft)
31.07.2014 14:18 24,9 C 23,9 C 59 % 1015,0 hPa 0,0 l/m 2 min 0 min 4,9 UV-I 753 W/m 10,5 km/h (2 Bft)
31.07.2014 14:20 24,7 C 23,9 C 58 % 1014,9 hPa 0,0 l/m 2 min 0 min 3,7 UV-I 748 W/m 6,3 km/h (2 Bft)
31.07.2014 14:22 24,7 C 23,9 C 60 % 1014,9 hPa 0,0 l/m 2 min 0 min 4,9 UV-I 747 W/m 8,4 km/h (2 Bft)
31.07.2014 14:24 24,7 C 23,9 C 61 % 1014,8 hPa 0,0 l/m 2 min 0 min 4,8 UV-I 745 W/m 6,3 km/h (2 Bft)
31.07.2014 14:26 24,6 C 23,9 C 62 % 1014,8 hPa 0,0 l/m 2 min 0 min 4,8 UV-I 742 W/m 6,3 km/h (2 Bft)
31.07.2014 14:28 24,5 C 23,9 C 60 % 1014,8 hPa 0,0 l/m 2 min 0 min 4,7 UV-I 743 W/m 2,1 km/h (1 Bft)
31.07.2014 14:30 24,6 C 23,9 C 65 % 1014,7 hPa 0,0 l/m 2 min 0 min 4,8 UV-I 742 W/m 0,0 km/h (0 Bft)
31.07.2014 14:32 24,6 C 23,9 C 61 % 1014,7 hPa 0,0 l/m 2 min 0 min 4,7 UV-I 739 W/m 4,2 km/h (1 Bft)
31.07.2014 14:34 24,5 C 23,9 C 61 % 1014,7 hPa 0,0 l/m 2 min 0 min 4,8 UV-I 743 W/m 10,5 km/h (2 Bft)
31.07.2014 14:36 24,6 C 23,9 C 63 % 1014,7 hPa 0,0 l/m 2 min 0 min 4,8 UV-I 743 W/m 12,6 km/h (3 Bft)
31.07.2014 14:38 24,8 C 23,9 C 60 % 1014,6 hPa 0,0 l/m 2 min 0 min 3,6 UV-I 742 W/m 10,5 km/h (2 Bft)
31.07.2014 14:40 24,9 C 23,9 C 58 % 1014,6 hPa 0,0 l/m 2 min 0 min 4,7 UV-I 740 W/m 2,1 km/h (1 Bft)
31.07.2014 14:42 25,0 C 23,9 C 60 % 1014,7 hPa 0,0 l/m 2 min 0 min 4,7 UV-I 737 W/m 10,5 km/h (2 Bft)
31.07.2014 14:44 25,0 C 23,9 C 61 % 1014,7 hPa 0,0 l/m 2 min 0 min 4,6 UV-I 731 W/m 10,5 km/h (2 Bft)
31.07.2014 14:46 25,1 C 23,9 C 63 % 1014,7 hPa 0,0 l/m 2 min 0 min 4,6 UV-I 735 W/m 0,0 km/h (0 Bft)
31.07.2014 14:48 25,2 C 24,4 C 59 % 1014,6 hPa 0,0 l/m 2 min 0 min 4,6 UV-I 730 W/m 12,6 km/h (3 Bft)
31.07.2014 14:50 25,0 C 23,9 C 56 % 1014,6 hPa 0,0 l/m 2 min 0 min 4,6 UV-I 731 W/m 4,2 km/h (1 Bft)
31.07.2014 14:52 24,4 C 23,3 C 59 % 1014,6 hPa 0,0 l/m 2 min 0 min 4,5 UV-I 728 W/m 0,0 km/h (0 Bft)
31.07.2014 14:54 24,6 C 23,9 C 60 % 1014,6 hPa 0,0 l/m 2 min 0 min 4,5 UV-I 727 W/m 2,1 km/h (1 Bft)
31.07.2014 14:56 25,1 C 23,9 C 63 % 1014,6 hPa 0,0 l/m 2 min 0 min 4,4 UV-I 723 W/m 0,0 km/h (0 Bft)
31.07.2014 14:58 25,4 C 24,4 C 58 % 1014,5 hPa 0,0 l/m 2 min 0 min 4,3 UV-I 719 W/m 14,6 km/h (3 Bft)
31.07.2014 15:00 25,5 C 24,4 C 58 % 1014,5 hPa 0,0 l/m 2 min 0 min 4,4 UV-I 712 W/m 10,5 km/h (2 Bft)
31.07.2014 15:02 25,5 C 24,4 C 55 % 1014,5 hPa 0,0 l/m 2 min 0 min 4,4 UV-I 709 W/m 8,4 km/h (2 Bft)
31.07.2014 15:04 25,6 C 24,4 C 59 % 1014,5 hPa 0,0 l/m 2 min 0 min 4,4 UV-I 711 W/m 8,4 km/h (2 Bft)
31.07.2014 15:06 25,9 C 24,4 C 58 % 1014,4 hPa 0,0 l/m 2 min 0 min 4,3 UV-I 707 W/m 12,6 km/h (3 Bft)
31.07.2014 15:08 25,7 C 24,4 C 54 % 1014,5 hPa 0,0 l/m 2 min 0 min 4,2 UV-I 702 W/m 6,3 km/h (2 Bft)
31.07.2014 15:10 25,6 C 24,4 C 55 % 1014,5 hPa 0,0 l/m 2 min 0 min 4,2 UV-I 701 W/m 8,4 km/h (2 Bft)
31.07.2014 15:12 25,4 C 24,4 C 55 % 1014,5 hPa 0,0 l/m 2 min 0 min 4,2 UV-I 700 W/m 0,0 km/h (0 Bft)
31.07.2014 15:14 25,1 C 23,9 C 54 % 1014,5 hPa 0,0 l/m 2 min 0 min 4,2 UV-I 696 W/m 0,0 km/h (0 Bft)
31.07.2014 15:16 24,7 C 23,9 C 55 % 1014,5 hPa 0,0 l/m 2 min 0 min 4,1 UV-I 686 W/m 2,1 km/h (1 Bft)
31.07.2014 15:18 24,7 C 23,9 C 59 % 1014,5 hPa 0,0 l/m 2 min 0 min 4,1 UV-I 690 W/m 8,4 km/h (2 Bft)
31.07.2014 15:20 24,8 C 24,4 C 56 % 1014,4 hPa 0,0 l/m 2 min 0 min 4,0 UV-I 687 W/m 16,7 km/h (3 Bft)
31.07.2014 15:22 25,1 C 24,4 C 58 % 1014,3 hPa 0,0 l/m 2 min 0 min 3,9 UV-I 681 W/m 20,9 km/h (4 Bft)
31.07.2014 15:24 25,4 C 24,4 C 60 % 1014,3 hPa 0,0 l/m 2 min 0 min 4,0 UV-I 685 W/m 10,5 km/h (2 Bft)
31.07.2014 15:26 25,9 C 25,0 C 60 % 1014,3 hPa 0,0 l/m 2 min 0 min 4,0 UV-I 684 W/m 8,4 km/h (2 Bft)
31.07.2014 15:28 26,0 C 24,4 C 54 % 1014,3 hPa 0,0 l/m 2 min 0 min 3,9 UV-I 682 W/m 8,4 km/h (2 Bft)
31.07.2014 15:30 25,7 C 24,4 C 55 % 1014,3 hPa 0,0 l/m 2 min 0 min 3,5 UV-I 681 W/m 10,5 km/h (2 Bft)
31.07.2014 15:32 25,7 C 24,4 C 54 % 1014,4 hPa 0,0 l/m 2 min 0 min 3,9 UV-I 677 W/m 12,6 km/h (3 Bft)
31.07.2014 15:34 25,7 C 24,4 C 54 % 1014,3 hPa 0,0 l/m 2 min 0 min 3,5 UV-I 677 W/m 16,7 km/h (3 Bft)
31.07.2014 15:36 26,1 C 25,0 C 58 % 1014,3 hPa 0,0 l/m 2 min 0 min 3,2 UV-I 675 W/m 14,6 km/h (3 Bft)
31.07.2014 15:38 26,3 C 25,0 C 55 % 1014,3 hPa 0,0 l/m 2 min 0 min 3,8 UV-I 669 W/m 6,3 km/h (2 Bft)
31.07.2014 15:40 26,0 C 25,0 C 51 % 1014,3 hPa 0,0 l/m 2 min 0 min 3,7 UV-I 661 W/m 0,0 km/h (0 Bft)
31.07.2014 15:42 26,0 C 25,0 C 54 % 1014,3 hPa 0,0 l/m 2 min 0 min 3,6 UV-I 640 W/m 0,0 km/h (0 Bft)
31.07.2014 15:44 25,6 C 24,4 C 53 % 1014,3 hPa 0,0 l/m 2 min 0 min 3,3 UV-I 602 W/m 2,1 km/h (1 Bft)
31.07.2014 15:46 25,4 C 24,4 C 56 % 1014,3 hPa 0,0 l/m 2 min 0 min 3,4 UV-I 634 W/m 6,3 km/h (2 Bft)
31.07.2014 15:48 25,6 C 24,4 C 57 % 1014,3 hPa 0,0 l/m 2 min 0 min 3,2 UV-I 629 W/m 8,4 km/h (2 Bft)
31.07.2014 15:50 25,7 C 25,0 C 58 % 1014,1 hPa 0,0 l/m 2 min 0 min 3,3 UV-I 608 W/m 6,3 km/h (2 Bft)
31.07.2014 15:52 25,8 C 25,0 C 57 % 1014,2 hPa 0,0 l/m 2 min 0 min 3,2 UV-I 617 W/m 6,3 km/h (2 Bft)
31.07.2014 15:54 25,8 C 25,0 C 56 % 1014,2 hPa 0,0 l/m 2 min 0 min 3,3 UV-I 623 W/m 8,4 km/h (2 Bft)
31.07.2014 15:56 25,7 C 25,0 C 56 % 1014,2 hPa 0,0 l/m 2 min 0 min 3,3 UV-I 627 W/m 8,4 km/h (2 Bft)
31.07.2014 15:58 25,7 C 24,4 C 55 % 1014,1 hPa 0,0 l/m 2 min 0 min 3,3 UV-I 635 W/m 10,5 km/h (2 Bft)
31.07.2014 16:00 25,6 C 25,0 C 54 % 1014,1 hPa 0,0 l/m 2 min 0 min 3,2 UV-I 632 W/m 10,5 km/h (2 Bft)
31.07.2014 16:02 25,5 C 25,0 C 53 % 1014,1 hPa 0,0 l/m 2 min 0 min 3,2 UV-I 603 W/m 14,6 km/h (3 Bft)
31.07.2014 16:04 25,6 C 25,0 C 57 % 1014,1 hPa 0,0 l/m 2 min 0 min 3,1 UV-I 578 W/m 10,5 km/h (2 Bft)
31.07.2014 16:06 25,8 C 25,0 C 55 % 1014,2 hPa 0,0 l/m 2 min 0 min 3,0 UV-I 563 W/m 8,4 km/h (2 Bft)
31.07.2014 16:08 25,9 C 25,0 C 54 % 1014,2 hPa 0,0 l/m 2 min 0 min 2,9 UV-I 575 W/m 10,5 km/h (2 Bft)
31.07.2014 16:10 25,9 C 25,0 C 54 % 1014,1 hPa 0,0 l/m 2 min 0 min 2,9 UV-I 570 W/m 8,4 km/h (2 Bft)
31.07.2014 16:12 25,9 C 25,0 C 52 % 1014,2 hPa 0,0 l/m 2 min 0 min 2,9 UV-I 586 W/m 6,3 km/h (2 Bft)
31.07.2014 16:14 25,7 C 25,0 C 53 % 1014,1 hPa 0,0 l/m 2 min 0 min 2,9 UV-I 599 W/m 10,5 km/h (2 Bft)
31.07.2014 16:16 26,0 C 25,6 C 60 % 1014,1 hPa 0,0 l/m 2 min 0 min 2,8 UV-I 589 W/m 2,1 km/h (1 Bft)
31.07.2014 16:18 26,2 C 25,6 C 54 % 1014,0 hPa 0,0 l/m 2 min 0 min 2,7 UV-I 570 W/m 2,1 km/h (1 Bft)
31.07.2014 16:20 25,8 C 26,1 C 52 % 1014,0 hPa 0,0 l/m 2 min 0 min 2,7 UV-I 553 W/m 2,1 km/h (1 Bft)
31.07.2014 16:22 25,4 C 26,7 C 54 % 1013,8 hPa 0,0 l/m 2 min 0 min 2,6 UV-I 521 W/m 2,1 km/h (1 Bft)
31.07.2014 16:24 25,5 C 27,2 C 58 % 1013,8 hPa 0,0 l/m 2 min 0 min 2,5 UV-I 508 W/m 2,1 km/h (1 Bft)
31.07.2014 16:26 26,1 C 27,8 C 58 % 1013,8 hPa 0,0 l/m 2 min 0 min 2,6 UV-I 537 W/m 8,4 km/h (2 Bft)
31.07.2014 16:28 26,2 C 27,8 C 57 % 1013,9 hPa 0,0 l/m 2 min 0 min 2,6 UV-I 571 W/m 6,3 km/h (2 Bft)
31.07.2014 16:30 26,3 C 27,8 C 57 % 1013,8 hPa 0,0 l/m 2 min 0 min 2,5 UV-I 539 W/m 6,3 km/h (2 Bft)
31.07.2014 16:32 26,3 C 27,8 C 55 % 1013,8 hPa 0,0 l/m 2 min 0 min 2,5 UV-I 533 W/m 6,3 km/h (2 Bft)
31.07.2014 16:34 26,2 C 27,8 C 55 % 1013,7 hPa 0,0 l/m 2 min 0 min 2,5 UV-I 560 W/m 2,1 km/h (1 Bft)
31.07.2014 16:36 26,2 C 26,7 C 58 % 1013,7 hPa 0,0 l/m 2 min 0 min 2,4 UV-I 531 W/m 0,0 km/h (0 Bft)
31.07.2014 16:38 26,3 C 26,1 C 56 % 1013,7 hPa 0,0 l/m 2 min 0 min 2,4 UV-I 546 W/m 4,2 km/h (1 Bft)
31.07.2014 16:40 26,4 C 26,1 C 56 % 1013,7 hPa 0,0 l/m 2 min 0 min 2,4 UV-I 548 W/m 12,6 km/h (3 Bft)
31.07.2014 16:42 26,2 C 25,6 C 54 % 1013,7 hPa 0,0 l/m 2 min 0 min 2,4 UV-I 555 W/m 6,3 km/h (2 Bft)
31.07.2014 16:44 26,1 C 25,6 C 54 % 1013,7 hPa 0,0 l/m 2 min 0 min 2,4 UV-I 549 W/m 10,5 km/h (2 Bft)
31.07.2014 16:46 25,9 C 25,0 C 53 % 1013,7 hPa 0,0 l/m 2 min 0 min 2,3 UV-I 515 W/m 10,5 km/h (2 Bft)
31.07.2014 16:48 25,8 C 25,0 C 54 % 1013,8 hPa 0,0 l/m 2 min 0 min 2,2 UV-I 485 W/m 10,5 km/h (2 Bft)
31.07.2014 16:50 25,6 C 25,0 C 53 % 1013,7 hPa 0,0 l/m 2 min 0 min 2,2 UV-I 520 W/m 6,3 km/h (2 Bft)
31.07.2014 16:52 25,4 C 24,4 C 53 % 1013,7 hPa 0,0 l/m 2 min 0 min 2,2 UV-I 529 W/m 6,3 km/h (2 Bft)
31.07.2014 16:54 25,6 C 24,4 C 55 % 1013,7 hPa 0,0 l/m 2 min 0 min 2,2 UV-I 522 W/m 6,3 km/h (2 Bft)
31.07.2014 16:56 25,8 C 24,4 C 53 % 1013,7 hPa 0,0 l/m 2 min 0 min 2,1 UV-I 515 W/m 6,3 km/h (2 Bft)
31.07.2014 16:58 25,8 C 24,4 C 51 % 1013,7 hPa 0,0 l/m 2 min 0 min 2,1 UV-I 504 W/m 10,5 km/h (2 Bft)
31.07.2014 17:00 25,9 C 24,4 C 51 % 1013,7 hPa 0,0 l/m 2 min 0 min 2,1 UV-I 508 W/m 8,4 km/h (2 Bft)
31.07.2014 17:02 25,9 C 24,4 C 50 % 1013,7 hPa 0,0 l/m 2 min 0 min 2,0 UV-I 507 W/m 8,4 km/h (2 Bft)
31.07.2014 17:04 25,9 C 24,4 C 51 % 1013,6 hPa 0,0 l/m 2 min 0 min 2,0 UV-I 504 W/m 10,5 km/h (2 Bft)
31.07.2014 17:06 25,9 C 24,4 C 50 % 1013,6 hPa 0,0 l/m 2 min 0 min 2,0 UV-I 500 W/m 4,2 km/h (1 Bft)
31.07.2014 17:08 25,8 C 24,4 C 53 % 1013,6 hPa 0,0 l/m 2 min 0 min 1,9 UV-I 499 W/m 0,0 km/h (0 Bft)
31.07.2014 17:10 25,7 C 24,4 C 52 % 1013,5 hPa 0,0 l/m 2 min 0 min 1,9 UV-I 496 W/m 2,1 km/h (1 Bft)
31.07.2014 17:12 25,7 C 24,4 C 52 % 1013,5 hPa 0,0 l/m 2 min 0 min 1,8 UV-I 490 W/m 2,1 km/h (1 Bft)
31.07.2014 17:14 25,6 C 24,4 C 51 % 1013,5 hPa 0,0 l/m 2 min 0 min 1,8 UV-I 482 W/m 6,3 km/h (2 Bft)
31.07.2014 17:16 25,6 C 24,4 C 53 % 1013,5 hPa 0,0 l/m 2 min 0 min 1,7 UV-I 467 W/m 6,3 km/h (2 Bft)
31.07.2014 17:18 25,7 C 24,4 C 53 % 1013,5 hPa 0,0 l/m 2 min 0 min 1,7 UV-I 467 W/m 0,0 km/h (0 Bft)
31.07.2014 17:20 25,8 C 24,4 C 53 % 1013,5 hPa 0,0 l/m 2 min 0 min 1,6 UV-I 466 W/m 2,1 km/h (1 Bft)
31.07.2014 17:22 25,9 C 24,4 C 51 % 1013,6 hPa 0,0 l/m 2 min 0 min 1,5 UV-I 466 W/m 2,1 km/h (1 Bft)
31.07.2014 17:24 25,9 C 24,4 C 54 % 1013,4 hPa 0,0 l/m 2 min 0 min 1,4 UV-I 463 W/m 12,6 km/h (3 Bft)
31.07.2014 17:26 26,1 C 24,4 C 55 % 1013,5 hPa 0,0 l/m 2 min 0 min 1,2 UV-I 458 W/m 6,3 km/h (2 Bft)
31.07.2014 17:28 26,2 C 24,4 C 55 % 1013,5 hPa 0,0 l/m 2 min 0 min 1,0 UV-I 457 W/m 6,3 km/h (2 Bft)
31.07.2014 17:30 26,3 C 24,4 C 53 % 1013,4 hPa 0,0 l/m 2 min 0 min 1,0 UV-I 447 W/m 2,1 km/h (1 Bft)
31.07.2014 17:32 26,1 C 24,4 C 50 % 1013,4 hPa 0,0 l/m 2 min 0 min 1,0 UV-I 436 W/m 0,0 km/h (0 Bft)
31.07.2014 17:34 25,9 C 24,4 C 53 % 1013,4 hPa 0,0 l/m 2 min 0 min 1,0 UV-I 431 W/m 2,1 km/h (1 Bft)
31.07.2014 17:36 25,8 C 24,4 C 53 % 1013,4 hPa 0,0 l/m 2 min 0 min 0,9 UV-I 435 W/m 2,1 km/h (1 Bft)
31.07.2014 17:38 25,7 C 24,4 C 52 % 1013,5 hPa 0,0 l/m 2 min 0 min 0,9 UV-I 384 W/m 2,1 km/h (1 Bft)
31.07.2014 17:40 25,7 C 23,9 C 51 % 1013,4 hPa 0,0 l/m 2 min 0 min 0,9 UV-I 421 W/m 0,0 km/h (0 Bft)
31.07.2014 17:42 25,6 C 23,9 C 52 % 1013,4 hPa 0,0 l/m 2 min 0 min 0,9 UV-I 418 W/m 2,1 km/h (1 Bft)
31.07.2014 17:44 25,4 C 23,9 C 53 % 1013,3 hPa 0,0 l/m 2 min 0 min 0,9 UV-I 409 W/m 0,0 km/h (0 Bft)
31.07.2014 17:46 25,4 C 23,9 C 55 % 1013,3 hPa 0,0 l/m 2 min 0 min 0,8 UV-I 403 W/m 2,1 km/h (1 Bft)
31.07.2014 17:48 25,3 C 23,9 C 55 % 1013,3 hPa 0,0 l/m 2 min 0 min 0,8 UV-I 395 W/m 10,5 km/h (2 Bft)
31.07.2014 17:50 25,3 C 23,9 C 55 % 1013,3 hPa 0,0 l/m 2 min 0 min 0,8 UV-I 389 W/m 10,5 km/h (2 Bft)
31.07.2014 17:52 25,4 C 23,9 C 54 % 1013,3 hPa 0,0 l/m 2 min 0 min 0,8 UV-I 392 W/m 8,4 km/h (2 Bft)
31.07.2014 17:54 25,5 C 23,9 C 54 % 1013,3 hPa 0,0 l/m 2 min 0 min 0,7 UV-I 391 W/m 6,3 km/h (2 Bft)
31.07.2014 17:56 25,5 C 23,9 C 55 % 1013,2 hPa 0,0 l/m 2 min 0 min 0,7 UV-I 380 W/m 2,1 km/h (1 Bft)
31.07.2014 17:58 25,6 C 23,9 C 54 % 1013,2 hPa 0,0 l/m 2 min 0 min 0,7 UV-I 371 W/m 8,4 km/h (2 Bft)
31.07.2014 18:00 25,6 C 24,4 C 55 % 1013,2 hPa 0,0 l/m 2 min 0 min 0,7 UV-I 367 W/m 4,2 km/h (1 Bft)
31.07.2014 18:02 25,5 C 25,6 C 53 % 1013,3 hPa 0,0 l/m 2 min 0 min 0,6 UV-I 357 W/m 8,4 km/h (2 Bft)
31.07.2014 18:06 25,4 C 25,0 C 54 % 1013,2 hPa 0,0 l/m 2 min 0 min 0,6 UV-I 358 W/m 10,5 km/h (2 Bft)
31.07.2014 18:08 25,4 C 24,4 C 54 % 1013,2 hPa 0,0 l/m 2 min 0 min 0,6 UV-I 343 W/m 10,5 km/h (2 Bft)
31.07.2014 18:10 25,3 C 23,9 C 53 % 1013,2 hPa 0,0 l/m 2 min 0 min 0,5 UV-I 330 W/m 0,0 km/h (0 Bft)
31.07.2014 18:12 25,3 C 23,9 C 54 % 1013,1 hPa 0,0 l/m 2 min 0 min 0,5 UV-I 334 W/m 2,1 km/h (1 Bft)
31.07.2014 18:14 25,3 C 23,9 C 55 % 1013,1 hPa 0,0 l/m 2 min 0 min 0,5 UV-I 337 W/m 2,1 km/h (1 Bft)
31.07.2014 18:16 25,2 C 23,9 C 53 % 1013,1 hPa 0,0 l/m 2 min 0 min 0,5 UV-I 334 W/m 2,1 km/h (1 Bft)
31.07.2014 18:18 25,2 C 23,9 C 54 % 1013,1 hPa 0,0 l/m 2 min 0 min 0,5 UV-I 329 W/m 8,4 km/h (2 Bft)
31.07.2014 18:20 25,1 C 23,9 C 53 % 1013,1 hPa 0,0 l/m 2 min 0 min 0,0 UV-I 325 W/m 6,3 km/h (2 Bft)
31.07.2014 18:22 25,1 C 23,9 C 54 % 1013,1 hPa 0,0 l/m 2 min 0 min 0,0 UV-I 320 W/m 2,1 km/h (1 Bft)
31.07.2014 18:24 25,1 C 23,3 C 53 % 1013,1 hPa 0,0 l/m 2 min 0 min 0,0 UV-I 312 W/m 8,4 km/h (2 Bft)
31.07.2014 18:26 25,1 C 23,3 C 55 % 1013,0 hPa 0,0 l/m 2 min 0 min 0,0 UV-I 309 W/m 10,5 km/h (2 Bft)
31.07.2014 18:28 25,1 C 23,9 C 54 % 1013,1 hPa 0,0 l/m 2 min 0 min 0,0 UV-I 306 W/m 10,5 km/h (2 Bft)
31.07.2014 18:30 25,1 C 23,3 C 53 % 1013,0 hPa 0,0 l/m 2 min 0 min 0,0 UV-I 304 W/m 8,4 km/h (2 Bft)
31.07.2014 18:32 25,1 C 23,9 C 53 % 1013,0 hPa 0,0 l/m 2 min 0 min 0,0 UV-I 295 W/m 2,1 km/h (1 Bft)
31.07.2014 18:34 25,1 C 23,9 C 54 % 1013,1 hPa 0,0 l/m 2 min 0 min 0,0 UV-I 293 W/m 6,3 km/h (2 Bft)
31.07.2014 18:36 25,0 C 23,9 C 52 % 1013,1 hPa 0,0 l/m 2 min 0 min 0,0 UV-I 291 W/m 2,1 km/h (1 Bft)
31.07.2014 18:38 25,1 C 23,9 C 53 % 1013,0 hPa 0,0 l/m 2 min 0 min 0,0 UV-I 289 W/m 10,5 km/h (2 Bft)
31.07.2014 18:40 25,1 C 23,9 C 55 % 1013,0 hPa 0,0 l/m 2 min 0 min 0,0 UV-I 279 W/m 10,5 km/h (2 Bft)
31.07.2014 18:42 25,1 C 23,9 C 55 % 1013,0 hPa 0,0 l/m 2 min 0 min 0,0 UV-I 273 W/m 6,3 km/h (2 Bft)
31.07.2014 18:44 25,1 C 23,9 C 55 % 1012,9 hPa 0,0 l/m 2 min 0 min 0,0 UV-I 266 W/m 2,1 km/h (1 Bft)
31.07.2014 18:46 25,1 C 23,9 C 53 % 1012,9 hPa 0,0 l/m 2 min 0 min 0,0 UV-I 264 W/m 2,1 km/h (1 Bft)
31.07.2014 18:48 25,1 C 23,9 C 54 % 1012,9 hPa 0,0 l/m 2 min 0 min 0,0 UV-I 250 W/m 8,4 km/h (2 Bft)
31.07.2014 18:50 25,1 C 23,3 C 53 % 1012,8 hPa 0,0 l/m 2 min 0 min 0,0 UV-I 236 W/m 8,4 km/h (2 Bft)
31.07.2014 18:52 25,1 C 23,3 C 53 % 1012,7 hPa 0,0 l/m 2 min 0 min 0,0 UV-I 242 W/m 8,4 km/h (2 Bft)
31.07.2014 18:54 25,1 C 23,3 C 54 % 1012,8 hPa 0,0 l/m 2 min 0 min 0,0 UV-I 245 W/m 10,5 km/h (2 Bft)
31.07.2014 18:56 25,1 C 23,3 C 55 % 1012,8 hPa 0,0 l/m 2 min 0 min 0,0 UV-I 239 W/m 8,4 km/h (2 Bft)
31.07.2014 18:58 25,1 C 23,3 C 52 % 1012,8 hPa 0,0 l/m 2 min 0 min 0,0 UV-I 238 W/m 6,3 km/h (2 Bft)
31.07.2014 19:00 25,1 C 23,3 C 54 % 1012,7 hPa 0,0 l/m 2 min 0 min 0,0 UV-I 229 W/m 0,0 km/h (0 Bft)
31.07.2014 19:02 25,1 C 23,3 C 53 % 1012,7 hPa 0,0 l/m 2 min 0 min 0,0 UV-I 228 W/m 0,0 km/h (0 Bft)
31.07.2014 19:04 25,1 C 23,3 C 53 % 1012,7 hPa 0,0 l/m 2 min 0 min 0,0 UV-I 224 W/m 0,0 km/h (0 Bft)
31.07.2014 19:06 25,1 C 23,3 C 53 % 1012,8 hPa 0,0 l/m 2 min 0 min 0,0 UV-I 217 W/m 0,0 km/h (0 Bft)
31.07.2014 19:08 25,1 C 23,3 C 54 % 1012,7 hPa 0,0 l/m 2 min 0 min 0,0 UV-I 215 W/m 8,4 km/h (2 Bft)
31.07.2014 19:10 25,1 C 23,3 C 53 % 1012,7 hPa 0,0 l/m 2 min 0 min 0,0 UV-I 214 W/m 8,4 km/h (2 Bft)
31.07.2014 19:12 25,1 C 23,3 C 54 % 1012,7 hPa 0,0 l/m 2 min 0 min 0,0 UV-I 210 W/m 0,0 km/h (0 Bft)
31.07.2014 19:14 25,1 C 23,3 C 54 % 1012,7 hPa 0,0 l/m 2 min 0 min 0,0 UV-I 203 W/m 2,1 km/h (1 Bft)
31.07.2014 19:16 25,1 C 23,3 C 54 % 1012,7 hPa 0,0 l/m 2 min 0 min 0,0 UV-I 200 W/m 10,5 km/h (2 Bft)
31.07.2014 19:18 25,0 C 23,3 C 54 % 1012,7 hPa 0,0 l/m 2 min 0 min 0,0 UV-I 189 W/m 2,1 km/h (1 Bft)
31.07.2014 19:20 25,0 C 23,3 C 54 % 1012,7 hPa 0,0 l/m 2 min 0 min 0,0 UV-I 177 W/m 6,3 km/h (2 Bft)
31.07.2014 19:22 24,9 C 23,3 C 55 % 1012,8 hPa 0,0 l/m 2 min 0 min 0,0 UV-I 177 W/m 8,4 km/h (2 Bft)
31.07.2014 19:24 24,9 C 23,3 C 54 % 1012,8 hPa 0,0 l/m 2 min 0 min 0,0 UV-I 175 W/m 8,4 km/h (2 Bft)
31.07.2014 19:26 24,9 C 23,3 C 55 % 1012,8 hPa 0,0 l/m 2 min 0 min 0,0 UV-I 182 W/m 8,4 km/h (2 Bft)
31.07.2014 19:28 24,9 C 23,3 C 56 % 1012,8 hPa 0,0 l/m 2 min 0 min 0,0 UV-I 181 W/m 8,4 km/h (2 Bft)
31.07.2014 19:30 24,9 C 23,3 C 56 % 1012,7 hPa 0,0 l/m 2 min 0 min 0,0 UV-I 179 W/m 10,5 km/h (2 Bft)
31.07.2014 19:32 24,8 C 23,3 C 57 % 1012,7 hPa 0,0 l/m 2 min 0 min 0,0 UV-I 169 W/m 2,1 km/h (1 Bft)
31.07.2014 19:34 24,9 C 22,8 C 59 % 1012,7 hPa 0,0 l/m 2 min 0 min 0,0 UV-I 157 W/m 6,3 km/h (2 Bft)
31.07.2014 19:36 24,8 C 22,8 C 59 % 1012,7 hPa 0,0 l/m 2 min 0 min 0,0 UV-I 149 W/m 10,5 km/h (2 Bft)
31.07.2014 19:38 24,7 C 22,8 C 59 % 1012,8 hPa 0,0 l/m 2 min 0 min 0,0 UV-I 136 W/m 8,4 km/h (2 Bft)
31.07.2014 19:40 24,7 C 22,8 C 59 % 1012,8 hPa 0,0 l/m 2 min 0 min 0,0 UV-I 131 W/m 8,4 km/h (2 Bft)
31.07.2014 19:42 24,7 C 22,8 C 59 % 1012,8 hPa 0,0 l/m 2 min 0 min 0,0 UV-I 121 W/m 6,3 km/h (2 Bft)
31.07.2014 19:44 24,6 C 22,8 C 59 % 1012,8 hPa 0,0 l/m 2 min 0 min 0,0 UV-I 121 W/m 6,3 km/h (2 Bft)
31.07.2014 19:46 24,6 C 22,8 C 59 % 1012,7 hPa 0,0 l/m 2 min 0 min 0,0 UV-I 112 W/m 0,0 km/h (0 Bft)
31.07.2014 19:48 24,4 C 22,8 C 60 % 1012,8 hPa 0,0 l/m 0 min 0 min 0,0 UV-I 100 W/m 2,1 km/h (1 Bft)
31.07.2014 19:50 24,4 C 22,8 C 59 % 1012,7 hPa 0,0 l/m 0 min 0 min 0,0 UV-I 98 W/m 10,5 km/h (2 Bft)
31.07.2014 19:52 24,3 C 22,8 C 59 % 1012,8 hPa 0,0 l/m 0 min 0 min 0,0 UV-I 101 W/m 8,4 km/h (2 Bft)
31.07.2014 19:54 24,3 C 22,2 C 59 % 1012,8 hPa 0,0 l/m 0 min 0 min 0,0 UV-I 89 W/m 6,3 km/h (2 Bft)
31.07.2014 19:56 24,3 C 22,2 C 61 % 1012,8 hPa 0,0 l/m 0 min 0 min 0,0 UV-I 82 W/m 2,1 km/h (1 Bft)
31.07.2014 19:58 24,2 C 22,2 C 61 % 1012,8 hPa 0,0 l/m 0 min 0 min 0,0 UV-I 77 W/m 0,0 km/h (0 Bft)
31.07.2014 20:00 24,2 C 22,2 C 59 % 1012,8 hPa 0,0 l/m 0 min 0 min 0,0 UV-I 66 W/m 0,0 km/h (0 Bft)
31.07.2014 20:02 24,2 C 22,2 C 60 % 1012,8 hPa 0,0 l/m 0 min 0 min 0,0 UV-I 60 W/m 2,1 km/h (1 Bft)
31.07.2014 20:04 24,1 C 22,2 C 60 % 1012,8 hPa 0,0 l/m 0 min 0 min 0,0 UV-I 59 W/m 0,0 km/h (0 Bft)
31.07.2014 20:06 24,1 C 21,7 C 61 % 1012,8 hPa 0,0 l/m 0 min 0 min 0,0 UV-I 58 W/m 0,0 km/h (0 Bft)
31.07.2014 20:08 23,9 C 21,7 C 61 % 1012,8 hPa 0,0 l/m 0 min 0 min 0,0 UV-I 56 W/m 2,1 km/h (1 Bft)
31.07.2014 20:10 23,8 C 21,7 C 61 % 1012,8 hPa 0,0 l/m 0 min 0 min 0,0 UV-I 60 W/m 6,3 km/h (2 Bft)
31.07.2014 20:12 23,8 C 21,7 C 61 % 1012,8 hPa 0,0 l/m 0 min 0 min 0,0 UV-I 62 W/m 8,4 km/h (2 Bft)
31.07.2014 20:14 23,7 C 21,7 C 63 % 1012,8 hPa 0,0 l/m 0 min 0 min 0,0 UV-I 62 W/m 8,4 km/h (2 Bft)
31.07.2014 20:16 23,7 C 21,1 C 63 % 1012,8 hPa 0,0 l/m 0 min 0 min 0,0 UV-I 59 W/m 2,1 km/h (1 Bft)
31.07.2014 20:18 23,6 C 21,1 C 63 % 1012,8 hPa 0,0 l/m 0 min 0 min 0,0 UV-I 59 W/m 8,4 km/h (2 Bft)
31.07.2014 20:20 23,6 C 21,1 C 63 % 1012,8 hPa 0,0 l/m 0 min 0 min 0,0 UV-I 54 W/m 6,3 km/h (2 Bft)
31.07.2014 20:22 23,4 C 21,1 C 63 % 1012,8 hPa 0,0 l/m 0 min 0 min 0,0 UV-I 50 W/m 2,1 km/h (1 Bft)
31.07.2014 20:24 23,4 C 21,1 C 63 % 1012,8 hPa 0,0 l/m 0 min 0 min 0,0 UV-I 44 W/m 6,3 km/h (2 Bft)
31.07.2014 20:26 23,4 C 21,1 C 64 % 1012,9 hPa 0,0 l/m 0 min 0 min 0,0 UV-I 42 W/m 0,0 km/h (0 Bft)
31.07.2014 20:28 23,3 C 20,6 C 64 % 1012,8 hPa 0,0 l/m 0 min 0 min 0,0 UV-I 41 W/m 0,0 km/h (0 Bft)
31.07.2014 20:30 23,2 C 20,6 C 65 % 1012,8 hPa 0,0 l/m 0 min 0 min 0,0 UV-I 39 W/m 0,0 km/h (0 Bft)
31.07.2014 20:32 23,2 C 20,6 C 64 % 1012,8 hPa 0,0 l/m 0 min 0 min 0,0 UV-I 37 W/m 0,0 km/h (0 Bft)
31.07.2014 20:34 23,1 C 20,6 C 65 % 1012,8 hPa 0,0 l/m 0 min 0 min 0,0 UV-I 35 W/m 0,0 km/h (0 Bft)
31.07.2014 20:36 23,1 C 20,0 C 65 % 1012,8 hPa 0,0 l/m 0 min 0 min 0,0 UV-I 32 W/m 0,0 km/h (0 Bft)
31.07.2014 20:38 23,0 C 20,0 C 65 % 1012,8 hPa 0,0 l/m 0 min 0 min 0,0 UV-I 32 W/m 0,0 km/h (0 Bft)
31.07.2014 20:40 22,9 C 20,0 C 65 % 1012,8 hPa 0,0 l/m 0 min 0 min 0,0 UV-I 30 W/m 0,0 km/h (0 Bft)
31.07.2014 20:42 22,9 C 20,0 C 65 % 1012,8 hPa 0,0 l/m 0 min 0 min 0,0 UV-I 29 W/m 0,0 km/h (0 Bft)
31.07.2014 20:44 22,8 C 20,0 C 66 % 1012,8 hPa 0,0 l/m 0 min 0 min 0,0 UV-I 27 W/m 0,0 km/h (0 Bft)
31.07.2014 20:46 22,8 C 20,0 C 66 % 1012,8 hPa 0,0 l/m 0 min 0 min 0,0 UV-I 26 W/m 0,0 km/h (0 Bft)
31.07.2014 20:48 22,7 C 20,0 C 66 % 1012,8 hPa 0,0 l/m 0 min 0 min 0,0 UV-I 24 W/m 0,0 km/h (0 Bft)
31.07.2014 20:50 22,7 C 20,0 C 67 % 1012,8 hPa 0,0 l/m 0 min 0 min 0,0 UV-I 23 W/m 0,0 km/h (0 Bft)
31.07.2014 20:52 22,6 C 19,4 C 69 % 1012,8 hPa 0,0 l/m 0 min 0 min 0,0 UV-I 21 W/m 0,0 km/h (0 Bft)
31.07.2014 20:54 22,4 C 19,4 C 70 % 1012,8 hPa 0,0 l/m 0 min 0 min 0,0 UV-I 20 W/m 0,0 km/h (0 Bft)
31.07.2014 20:56 22,3 C 19,4 C 70 % 1012,8 hPa 0,0 l/m 0 min 0 min 0,0 UV-I 19 W/m 0,0 km/h (0 Bft)
31.07.2014 20:58 22,2 C 19,4 C 70 % 1012,8 hPa 0,0 l/m 0 min 0 min 0,0 UV-I 18 W/m 0,0 km/h (0 Bft)
31.07.2014 21:00 22,0 C 19,4 C 71 % 1012,9 hPa 0,0 l/m 0 min 0 min 0,0 UV-I 15 W/m 0,0 km/h (0 Bft)
31.07.2014 21:02 21,9 C 18,9 C 71 % 1012,9 hPa 0,0 l/m 0 min 0 min 0,0 UV-I 14 W/m 0,0 km/h (0 Bft)
31.07.2014 21:04 21,9 C 18,9 C 71 % 1012,9 hPa 0,0 l/m 0 min 0 min 0,0 UV-I 13 W/m 0,0 km/h (0 Bft)
31.07.2014 21:06 21,8 C 18,9 C 71 % 1012,9 hPa 0,0 l/m 0 min 0 min 0,0 UV-I 11 W/m 0,0 km/h (0 Bft)
31.07.2014 21:08 21,8 C 18,9 C 72 % 1012,9 hPa 0,0 l/m 0 min 0 min 0,0 UV-I 10 W/m 0,0 km/h (0 Bft)
31.07.2014 21:10 21,8 C 18,9 C 71 % 1012,9 hPa 0,0 l/m 0 min 0 min 0,0 UV-I 9 W/m 0,0 km/h (0 Bft)
31.07.2014 21:12 21,7 C 18,9 C 71 % 1012,9 hPa 0,0 l/m 0 min 0 min 0,0 UV-I 8 W/m 0,0 km/h (0 Bft)
31.07.2014 21:14 21,6 C 18,9 C 73 % 1012,9 hPa 0,0 l/m 0 min 0 min 0,0 UV-I 7 W/m 0,0 km/h (0 Bft)
31.07.2014 21:16 21,6 C 18,9 C 73 % 1012,9 hPa 0,0 l/m 0 min 0 min 0,0 UV-I 5 W/m 0,0 km/h (0 Bft)
31.07.2014 21:18 21,6 C 18,3 C 73 % 1012,9 hPa 0,0 l/m 0 min 0 min 0,0 UV-I 5 W/m 0,0 km/h (0 Bft)
31.07.2014 21:20 21,6 C 18,3 C 74 % 1012,9 hPa 0,0 l/m 0 min 0 min 0,0 UV-I 2 W/m 0,0 km/h (0 Bft)
31.07.2014 21:22 21,6 C 18,3 C 74 % 1012,9 hPa 0,0 l/m 0 min 0 min 0,0 UV-I 0 W/m 0,0 km/h (0 Bft)
31.07.2014 21:24 21,5 C 18,3 C 74 % 1012,9 hPa 0,0 l/m 0 min 0 min 0,0 UV-I 0 W/m 0,0 km/h (0 Bft)
31.07.2014 21:26 21,5 C 18,3 C 74 % 1012,9 hPa 0,0 l/m 0 min 0 min 0,0 UV-I 0 W/m 0,0 km/h (0 Bft)
31.07.2014 21:28 21,4 C 18,3 C 74 % 1012,9 hPa 0,0 l/m 0 min 0 min 0,0 UV-I 0 W/m 0,0 km/h (0 Bft)
31.07.2014 21:30 21,4 C 18,3 C 75 % 1013,0 hPa 0,0 l/m 0 min 0 min 0,0 UV-I 0 W/m 0,0 km/h (0 Bft)
31.07.2014 21:32 21,3 C 18,3 C 75 % 1012,9 hPa 0,0 l/m 0 min 0 min 0,0 UV-I 0 W/m 0,0 km/h (0 Bft)
31.07.2014 21:34 21,2 C 18,3 C 76 % 1012,9 hPa 0,0 l/m 0 min 0 min 0,0 UV-I 0 W/m 0,0 km/h (0 Bft)
31.07.2014 21:36 21,1 C 18,3 C 77 % 1012,9 hPa 0,0 l/m 0 min 0 min 0,0 UV-I 0 W/m 0,0 km/h (0 Bft)
31.07.2014 21:38 21,0 C 18,3 C 77 % 1013,0 hPa 0,0 l/m 0 min 0 min 0,0 UV-I 0 W/m 0,0 km/h (0 Bft)
31.07.2014 21:40 20,9 C 18,3 C 78 % 1013,0 hPa 0,0 l/m 0 min 0 min 0,0 UV-I 0 W/m 0,0 km/h (0 Bft)
31.07.2014 21:42 20,9 C 17,8 C 78 % 1012,9 hPa 0,0 l/m 0 min 0 min 0,0 UV-I 0 W/m 0,0 km/h (0 Bft)
31.07.2014 21:44 20,8 C 17,8 C 79 % 1013,0 hPa 0,0 l/m 0 min 0 min 0,0 UV-I 0 W/m 0,0 km/h (0 Bft)
31.07.2014 21:46 20,7 C 17,8 C 79 % 1012,9 hPa 0,0 l/m 0 min 0 min 0,0 UV-I 0 W/m 0,0 km/h (0 Bft)
31.07.2014 21:48 20,7 C 17,8 C 79 % 1012,9 hPa 0,0 l/m 0 min 0 min 0,0 UV-I 0 W/m 0,0 km/h (0 Bft)
31.07.2014 21:50 20,7 C 17,8 C 79 % 1012,9 hPa 0,0 l/m 0 min 0 min 0,0 UV-I 0 W/m 0,0 km/h (0 Bft)
31.07.2014 21:52 20,6 C 17,8 C 79 % 1012,9 hPa 0,0 l/m 0 min 0 min 0,0 UV-I 0 W/m 0,0 km/h (0 Bft)
31.07.2014 21:54 20,6 C 17,8 C 79 % 1012,8 hPa 0,0 l/m 0 min 0 min 0,0 UV-I 0 W/m 0,0 km/h (0 Bft)
31.07.2014 21:56 20,5 C 17,8 C 80 % 1012,8 hPa 0,0 l/m 0 min 0 min 0,0 UV-I 0 W/m 0,0 km/h (0 Bft)
31.07.2014 21:58 20,4 C 17,8 C 80 % 1012,8 hPa 0,0 l/m 0 min 0 min 0,0 UV-I 0 W/m 0,0 km/h (0 Bft)
31.07.2014 22:00 20,4 C 17,8 C 81 % 1012,9 hPa 0,0 l/m 0 min 0 min 0,0 UV-I 0 W/m 0,0 km/h (0 Bft)
31.07.2014 22:02 20,4 C 17,8 C 81 % 1012,9 hPa 0,0 l/m 0 min 0 min 0,0 UV-I 0 W/m 0,0 km/h (0 Bft)
31.07.2014 22:04 20,4 C 17,8 C 81 % 1012,9 hPa 0,0 l/m 0 min 0 min 0,0 UV-I 0 W/m 0,0 km/h (0 Bft)
31.07.2014 22:06 20,4 C 17,8 C 82 % 1012,9 hPa 0,0 l/m 0 min 0 min 0,0 UV-I 0 W/m 0,0 km/h (0 Bft)
31.07.2014 22:08 20,3 C 17,8 C 81 % 1012,9 hPa 0,0 l/m 0 min 0 min 0,0 UV-I 0 W/m 0,0 km/h (0 Bft)
31.07.2014 22:10 20,3 C 17,8 C 81 % 1012,9 hPa 0,0 l/m 0 min 0 min 0,0 UV-I 0 W/m 0,0 km/h (0 Bft)
31.07.2014 22:12 20,3 C 17,8 C 82 % 1012,9 hPa 0,0 l/m 0 min 0 min 0,0 UV-I 0 W/m 0,0 km/h (0 Bft)
31.07.2014 22:14 20,3 C 17,8 C 82 % 1012,8 hPa 0,0 l/m 0 min 0 min 0,0 UV-I 0 W/m 0,0 km/h (0 Bft)
31.07.2014 22:16 20,2 C 17,8 C 82 % 1012,9 hPa 0,0 l/m 0 min 0 min 0,0 UV-I 0 W/m 0,0 km/h (0 Bft)
31.07.2014 22:18 20,2 C 17,8 C 82 % 1012,9 hPa 0,0 l/m 0 min 0 min 0,0 UV-I 0 W/m 0,0 km/h (0 Bft)
31.07.2014 22:20 20,1 C 17,8 C 82 % 1012,9 hPa 0,0 l/m 0 min 0 min 0,0 UV-I 0 W/m 0,0 km/h (0 Bft)
31.07.2014 22:22 20,1 C 17,8 C 83 % 1012,9 hPa 0,0 l/m 0 min 0 min 0,0 UV-I 0 W/m 0,0 km/h (0 Bft)
31.07.2014 22:24 20,1 C 17,8 C 82 % 1012,9 hPa 0,0 l/m 0 min 0 min 0,0 UV-I 0 W/m 0,0 km/h (0 Bft)
31.07.2014 22:26 20,1 C 17,8 C 83 % 1012,9 hPa 0,0 l/m 0 min 0 min 0,0 UV-I 0 W/m 0,0 km/h (0 Bft)
31.07.2014 22:28 20,0 C 17,2 C 83 % 1012,8 hPa 0,0 l/m 0 min 0 min 0,0 UV-I 0 W/m 0,0 km/h (0 Bft)
31.07.2014 22:30 20,0 C 17,2 C 84 % 1012,8 hPa 0,0 l/m 0 min 0 min 0,0 UV-I 0 W/m 0,0 km/h (0 Bft)
31.07.2014 22:32 19,9 C 17,2 C 84 % 1012,9 hPa 0,0 l/m 0 min 0 min 0,0 UV-I 0 W/m 0,0 km/h (0 Bft)
31.07.2014 22:34 19,9 C 17,2 C 84 % 1012,9 hPa 0,0 l/m 0 min 0 min 0,0 UV-I 0 W/m 0,0 km/h (0 Bft)
31.07.2014 22:36 19,9 C 17,2 C 84 % 1012,8 hPa 0,0 l/m 0 min 0 min 0,0 UV-I 0 W/m 0,0 km/h (0 Bft)
31.07.2014 22:38 19,9 C 17,2 C 84 % 1012,8 hPa 0,0 l/m 0 min 0 min 0,0 UV-I 0 W/m 0,0 km/h (0 Bft)
31.07.2014 22:40 19,9 C 17,2 C 84 % 1012,8 hPa 0,0 l/m 0 min 0 min 0,0 UV-I 0 W/m 0,0 km/h (0 Bft)
31.07.2014 22:42 19,9 C 17,2 C 84 % 1012,8 hPa 0,0 l/m 0 min 0 min 0,0 UV-I 0 W/m 0,0 km/h (0 Bft)
31.07.2014 22:44 19,8 C 17,2 C 84 % 1012,8 hPa 0,0 l/m 0 min 0 min 0,0 UV-I 0 W/m 0,0 km/h (0 Bft)
31.07.2014 22:46 19,8 C 17,2 C 84 % 1012,8 hPa 0,0 l/m 0 min 0 min 0,0 UV-I 0 W/m 0,0 km/h (0 Bft)
31.07.2014 22:48 19,8 C 17,2 C 84 % 1012,8 hPa 0,0 l/m 0 min 0 min 0,0 UV-I 0 W/m 0,0 km/h (0 Bft)
31.07.2014 22:50 19,7 C 17,2 C 84 % 1012,8 hPa 0,0 l/m 0 min 0 min 0,0 UV-I 0 W/m 0,0 km/h (0 Bft)
31.07.2014 22:52 19,7 C 17,2 C 85 % 1012,8 hPa 0,0 l/m 0 min 0 min 0,0 UV-I 0 W/m 0,0 km/h (0 Bft)
31.07.2014 22:54 19,7 C 17,2 C 85 % 1012,9 hPa 0,0 l/m 0 min 0 min 0,0 UV-I 0 W/m 0,0 km/h (0 Bft)
31.07.2014 22:56 19,6 C 17,2 C 85 % 1012,8 hPa 0,0 l/m 0 min 0 min 0,0 UV-I 0 W/m 0,0 km/h (0 Bft)
31.07.2014 22:58 19,6 C 17,2 C 85 % 1012,8 hPa 0,0 l/m 0 min 0 min 0,0 UV-I 0 W/m 0,0 km/h (0 Bft)
31.07.2014 23:00 19,5 C 17,2 C 84 % 1012,8 hPa 0,0 l/m 0 min 0 min 0,0 UV-I 0 W/m 0,0 km/h (0 Bft)
31.07.2014 23:02 19,4 C 16,7 C 84 % 1012,7 hPa 0,0 l/m 0 min 0 min 0,0 UV-I 0 W/m 0,0 km/h (0 Bft)
31.07.2014 23:04 19,3 C 16,7 C 85 % 1012,7 hPa 0,0 l/m 0 min 0 min 0,0 UV-I 0 W/m 0,0 km/h (0 Bft)
31.07.2014 23:06 19,2 C 16,7 C 85 % 1012,7 hPa 0,0 l/m 0 min 0 min 0,0 UV-I 0 W/m 0,0 km/h (0 Bft)
31.07.2014 23:08 19,2 C 16,7 C 85 % 1012,7 hPa 0,0 l/m 0 min 0 min 0,0 UV-I 0 W/m 0,0 km/h (0 Bft)
31.07.2014 23:10 19,2 C 16,7 C 86 % 1012,7 hPa 0,0 l/m 0 min 0 min 0,0 UV-I 0 W/m 0,0 km/h (0 Bft)
31.07.2014 23:12 19,2 C 16,7 C 86 % 1012,7 hPa 0,0 l/m 0 min 0 min 0,0 UV-I 0 W/m 0,0 km/h (0 Bft)
31.07.2014 23:14 19,1 C 16,7 C 86 % 1012,7 hPa 0,0 l/m 0 min 0 min 0,0 UV-I 0 W/m 0,0 km/h (0 Bft)
31.07.2014 23:16 19,1 C 16,7 C 87 % 1012,7 hPa 0,0 l/m 0 min 0 min 0,0 UV-I 0 W/m 0,0 km/h (0 Bft)
31.07.2014 23:18 19,1 C 16,7 C 87 % 1012,6 hPa 0,0 l/m 0 min 0 min 0,0 UV-I 0 W/m 0,0 km/h (0 Bft)
31.07.2014 23:20 19,0 C 16,7 C 87 % 1012,7 hPa 0,0 l/m 0 min 0 min 0,0 UV-I 0 W/m 0,0 km/h (0 Bft)
31.07.2014 23:22 19,0 C 16,7 C 87 % 1012,6 hPa 0,0 l/m 0 min 0 min 0,0 UV-I 0 W/m 0,0 km/h (0 Bft)
31.07.2014 23:24 18,9 C 16,7 C 87 % 1012,6 hPa 0,0 l/m 0 min 0 min 0,0 UV-I 0 W/m 0,0 km/h (0 Bft)
31.07.2014 23:26 18,9 C 16,7 C 87 % 1012,6 hPa 0,0 l/m 0 min 0 min 0,0 UV-I 0 W/m 0,0 km/h (0 Bft)
31.07.2014 23:28 18,9 C 16,7 C 87 % 1012,6 hPa 0,0 l/m 0 min 0 min 0,0 UV-I 0 W/m 0,0 km/h (0 Bft)
31.07.2014 23:30 18,9 C 16,7 C 87 % 1012,6 hPa 0,0 l/m 0 min 0 min 0,0 UV-I 0 W/m 0,0 km/h (0 Bft)
31.07.2014 23:32 18,8 C 16,7 C 88 % 1012,7 hPa 0,0 l/m 0 min 0 min 0,0 UV-I 0 W/m 0,0 km/h (0 Bft)
31.07.2014 23:34 18,8 C 16,7 C 88 % 1012,7 hPa 0,0 l/m 0 min 0 min 0,0 UV-I 0 W/m 0,0 km/h (0 Bft)
31.07.2014 23:36 18,8 C 16,7 C 88 % 1012,7 hPa 0,0 l/m 0 min 0 min 0,0 UV-I 0 W/m 0,0 km/h (0 Bft)
31.07.2014 23:38 18,8 C 16,7 C 88 % 1012,6 hPa 0,0 l/m 0 min 0 min 0,0 UV-I 0 W/m 0,0 km/h (0 Bft)
31.07.2014 23:40 18,7 C 16,7 C 89 % 1012,7 hPa 0,0 l/m 0 min 0 min 0,0 UV-I 0 W/m 0,0 km/h (0 Bft)
31.07.2014 23:42 18,7 C 16,7 C 89 % 1012,6 hPa 0,0 l/m 0 min 0 min 0,0 UV-I 0 W/m 0,0 km/h (0 Bft)
31.07.2014 23:44 18,7 C 16,7 C 89 % 1012,7 hPa 0,0 l/m 0 min 0 min 0,0 UV-I 0 W/m 0,0 km/h (0 Bft)
31.07.2014 23:46 18,6 C 16,7 C 89 % 1012,7 hPa 0,0 l/m 0 min 0 min 0,0 UV-I 0 W/m 0,0 km/h (0 Bft)
31.07.2014 23:48 18,6 C 16,7 C 89 % 1012,7 hPa 0,0 l/m 0 min 0 min 0,0 UV-I 0 W/m 0,0 km/h (0 Bft)
31.07.2014 23:50 18,5 C 16,7 C 89 % 1012,7 hPa 0,0 l/m 0 min 0 min 0,0 UV-I 0 W/m 0,0 km/h (0 Bft)
31.07.2014 23:52 18,4 C 16,1 C 89 % 1012,6 hPa 0,0 l/m 0 min 0 min 0,0 UV-I 0 W/m 0,0 km/h (0 Bft)
31.07.2014 23:54 18,4 C 16,1 C 89 % 1012,6 hPa 0,0 l/m 0 min 0 min 0,0 UV-I 0 W/m 0,0 km/h (0 Bft)
31.07.2014 23:56 18,4 C 16,1 C 89 % 1012,6 hPa 0,0 l/m 0 min 0 min 0,0 UV-I 0 W/m 0,0 km/h (0 Bft)
31.07.2014 23:58 18,3 C 16,1 C 89 % 1012,7 hPa 0,0 l/m 0 min 0 min 0,0 UV-I 0 W/m 0,0 km/h (0 Bft)
_ Min-Zeit 06:24 06:08 17:02 23:18 - - - - - 00:05
Minimum _ 12,5 C 11,1 C 50 % 1012,6 hPa - - - - - 0,0 km/h (0 Bft)
_ Max-Zeit 16:40 16:26 06:08 08:54 00:00 06:14 00:00 13:08 13:18 15:22
Maximum _ 26,4 C 27,8 C 98 % 1016,4 hPa 0,0 l/m 2 min 0 min 5,2 UV-I 774 W/m 20,9 km/h
SW (4 Bft)
Durchschnitt _ 19,6 C 18,9 C 77 % 1014,8 hPa #0,0 l/m #13:20 h #0 min. 3,1 UV-I 429 W/m 3,2 km/h (1 Bft)
© 2014 W. Hausmann